Observation data for Andrews on 03/01/2021      Previous  Date  Next       Current Mesonet Observations  Soil Data  Daily Summary Page  Observations in Plain Language
KANS 010600Z 06013KT 08/M10 A3006 RMK A01 T00801099  RH  027%=      5-min Rain = 0
KANS 010601Z 06014KT 08/M10 A3006 RMK A01 T00791099  RH  027%=      5-min Rain = 0
KANS 010602Z 06013KT 08/M10 A3006 RMK A01 T00791099  RH  027%=      5-min Rain = 0
KANS 010603Z 06014G20KT 08/M10 A3006 RMK A01 T00791099  RH  027%=      5-min Rain = 0
KANS 010604Z 06014G19KT 08/M10 A3006 RMK A01 T00791100  RH  027%=      5-min Rain = 0
KANS 010605Z 06014KT 08/M10 A3006 RMK A01 T00791100  RH  027%=      5-min Rain = 0
KANS 010606Z 06012G17KT 08/M10 A3006 RMK A01 T00791100  RH  027%=      5-min Rain = 0
KANS 010607Z 06013G19KT 08/M10 A3006 RMK A01 T00791100  RH  027%=      5-min Rain = 0
KANS 010608Z 06015G21KT 08/M10 A3005 RMK A01 T00781101  RH  027%=      5-min Rain = 0
KANS 010609Z 06016G21KT 08/M10 A3005 RMK A01 T00781101  RH  027%=      5-min Rain = 0
KANS 010610Z 05017KT 08/M10 A3005 RMK A01 T00791101  RH  027%=      5-min Rain = 0
KANS 010611Z 06016KT 08/M10 A3005 RMK A01 T00791102  RH  027%=      5-min Rain = 0
KANS 010612Z 06014G19KT 08/M10 A3005 RMK A01 T00791102  RH  027%=      5-min Rain = 0
KANS 010613Z 06014G19KT 08/M10 A3005 RMK A01 T00781102  RH  027%=      5-min Rain = 0
KANS 010614Z 05014KT 08/M10 A3005 RMK A01 T00781102  RH  027%=      5-min Rain = 0
KANS 010615Z 06015G21KT 08/M10 A3005 RMK A01 T00781102  RH  027%=      5-min Rain = 0
KANS 010616Z 06017G22KT 08/M10 A3005 RMK A01 T00781102  RH  027%=      5-min Rain = 0
KANS 010617Z 06015G22KT 08/M10 A3005 RMK A01 T00791102  RH  027%=      5-min Rain = 0
KANS 010618Z 06016G22KT 08/M10 A3005 RMK A01 T00791102  RH  027%=      5-min Rain = 0
KANS 010619Z 05016G21KT 08/M10 A3005 RMK A01 T00791102  RH  026%=      5-min Rain = 0
KANS 010620Z 05019G24KT 08/M10 A3005 RMK A01 T00801102  RH  026%=      5-min Rain = 0
KANS 010621Z 05017G23KT 08/M10 A3005 RMK A01 T00791102  RH  026%=      5-min Rain = 0
KANS 010622Z 05016G22KT 08/M10 A3005 RMK A01 T00791102  RH  026%=      5-min Rain = 0
KANS 010623Z 05019G24KT 08/M10 A3005 RMK A01 T00801102  RH  026%=      5-min Rain = 0
KANS 010624Z 05016G21KT 08/M10 A3005 RMK A01 T00791102  RH  026%=      5-min Rain = 0
KANS 010625Z 05016G22KT 08/M10 A3005 RMK A01 T00791102  RH  026%=      5-min Rain = 0
KANS 010626Z 05013G18KT 08/M10 A3005 RMK A01 T00791102  RH  027%=      5-min Rain = 0
KANS 010627Z 05014G21KT 08/M10 A3005 RMK A01 T00781102  RH  027%=      5-min Rain = 0
KANS 010628Z 05016KT 08/M10 A3005 RMK A01 T00781102  RH  027%=      5-min Rain = 0
KANS 010629Z 05013G18KT 08/M10 A3005 RMK A01 T00781102  RH  027%=      5-min Rain = 0
KANS 010630Z 05013G19KT 08/M10 A3005 RMK A01 T00781102  RH  027%=      5-min Rain = 0
KANS 010631Z 05015G20KT 08/M10 A3005 RMK A01 T00771102  RH  027%=      5-min Rain = 0
KANS 010632Z 05013KT 08/M10 A3005 RMK A01 T00771102  RH  027%=      5-min Rain = 0
KANS 010633Z 05014KT 08/M10 A3005 RMK A01 T00771102  RH  027%=      5-min Rain = 0
KANS 010634Z 05013G18KT 08/M10 A3005 RMK A01 T00771102  RH  027%=      5-min Rain = 0
KANS 010635Z 05015G22KT 08/M10 A3005 RMK A01 T00771102  RH  027%=      5-min Rain = 0
KANS 010636Z 06016G22KT 08/M10 A3005 RMK A01 T00781102  RH  027%=      5-min Rain = 0
KANS 010637Z 05016KT 08/M10 A3005 RMK A01 T00781102  RH  027%=      5-min Rain = 0
KANS 010638Z 06015G22KT 08/M10 A3005 RMK A01 T00791102  RH  027%=      5-min Rain = 0
KANS 010639Z 06015KT 08/M10 A3005 RMK A01 T00791102  RH  027%=      5-min Rain = 0
KANS 010640Z 05017G23KT 08/M10 A3005 RMK A01 T00791102  RH  027%=      5-min Rain = 0
KANS 010641Z 06016G21KT 08/M10 A3005 RMK A01 T00801102  RH  026%=      5-min Rain = 0
KANS 010642Z 05019G25KT 08/M10 A3005 RMK A01 T00801102  RH  026%=      5-min Rain = 0
KANS 010643Z 05015G20KT 08/M10 A3005 RMK A01 T00801102  RH  026%=      5-min Rain = 0
KANS 010644Z 05016G22KT 08/M10 A3005 RMK A01 T00801101  RH  026%=      5-min Rain = 0
KANS 010645Z 06015G20KT 08/M10 A3005 RMK A01 T00801101  RH  027%=      5-min Rain = 0
KANS 010646Z 06016KT 08/M10 A3005 RMK A01 T00801101  RH  027%=      5-min Rain = 0
KANS 010647Z 06014G19KT 08/M10 A3006 RMK A01 T00801101  RH  027%=      5-min Rain = 0
KANS 010648Z 06014G21KT 08/M10 A3006 RMK A01 T00801101  RH  027%=      5-min Rain = 0
KANS 010649Z 05018G25KT 08/M10 A3006 RMK A01 T00801101  RH  027%=      5-min Rain = 0
KANS 010650Z 06016G23KT 08/M10 A3006 RMK A01 T00801101  RH  027%=      5-min Rain = 0
KANS 010651Z 06015KT 08/M10 A3006 RMK A01 T00801101  RH  027%=      5-min Rain = 0
KANS 010652Z 06012G18KT 08/M10 A3006 RMK A01 T00801100  RH  027%=      5-min Rain = 0
KANS 010653Z 06013G18KT 08/M10 A3006 RMK A01 T00801100  RH  027%=      5-min Rain = 0
KANS 010654Z 06013G23KT 08/M10 A3006 RMK A01 T00791100  RH  027%=      5-min Rain = 0
KANS 010655Z 06017G24KT 08/M10 A3006 RMK A01 T00791100  RH  027%=      5-min Rain = 0
KANS 010656Z 06019KT 08/M10 A3006 RMK A01 T00791100  RH  027%=      5-min Rain = 0
KANS 010657Z 06018G23KT 08/M10 A3006 RMK A01 T00791100  RH  027%=      5-min Rain = 0
KANS 010658Z 05018G23KT 08/M10 A3006 RMK A01 T00791100  RH  027%=      5-min Rain = 0
KANS 010659Z 06017G24KT 08/M10 A3006 RMK A01 T00791100  RH  027%=      5-min Rain = 0
KANS 010700Z 06017G23KT 08/M10 A3006 RMK A01 T00791100  RH  027%=      5-min Rain = 0
KANS 010701Z 06019G25KT 08/M10 A3006 RMK A01 T00791100  RH  027%=      5-min Rain = 0
KANS 010702Z 06019G24KT 08/M10 A3006 RMK A01 T00791100  RH  027%=      5-min Rain = 0
KANS 010703Z 06015G20KT 08/M10 A3007 RMK A01 T00791099  RH  027%=      5-min Rain = 0
KANS 010704Z 06017KT 08/M10 A3007 RMK A01 T00791099  RH  027%=      5-min Rain = 0
KANS 010705Z 06012G18KT 08/M10 A3007 RMK A01 T00791098  RH  027%=      5-min Rain = 0
KANS 010706Z 06016G21KT 08/M10 A3007 RMK A01 T00791098  RH  027%=      5-min Rain = 0
KANS 010707Z 06014KT 08/M10 A3007 RMK A01 T00791098  RH  027%=      5-min Rain = 0
KANS 010708Z 06018G26KT 08/M10 A3007 RMK A01 T00791098  RH  027%=      5-min Rain = 0
KANS 010709Z 06016G22KT 08/M10 A3007 RMK A01 T00791098  RH  027%=      5-min Rain = 0
KANS 010710Z 06014KT 08/M10 A3008 RMK A01 T00781098  RH  028%=      5-min Rain = 0
KANS 010711Z 06010KT 08/M10 A3008 RMK A01 T00781097  RH  028%=      5-min Rain = 0
KANS 010712Z 06013G19KT 08/M10 A3008 RMK A01 T00771097  RH  028%=      5-min Rain = 0
KANS 010713Z 06015G20KT 08/M10 A3008 RMK A01 T00771097  RH  028%=      5-min Rain = 0
KANS 010714Z 06013KT 08/M10 A3008 RMK A01 T00771097  RH  028%=      5-min Rain = 0
KANS 010715Z 06013KT 08/M10 A3009 RMK A01 T00771097  RH  028%=      5-min Rain = 0
KANS 010716Z 06014G20KT 08/M10 A3009 RMK A01 T00771096  RH  028%=      5-min Rain = 0
KANS 010717Z 06013KT 08/M10 A3009 RMK A01 T00771096  RH  028%=      5-min Rain = 0
KANS 010718Z 06011KT 08/M10 A3009 RMK A01 T00771095  RH  028%=      5-min Rain = 0
KANS 010719Z 06011KT 08/M10 A3009 RMK A01 T00761095  RH  028%=      5-min Rain = 0
KANS 010720Z 06011G16KT 08/M10 A3009 RMK A01 T00761095  RH  029%=      5-min Rain = 0
KANS 010721Z 06013KT 08/M10 A3009 RMK A01 T00761095  RH  029%=      5-min Rain = 0
KANS 010722Z 05016KT 08/M10 A3008 RMK A01 T00761095  RH  029%=      5-min Rain = 0
KANS 010723Z 05013KT 08/M10 A3008 RMK A01 T00761095  RH  029%=      5-min Rain = 0
KANS 010724Z 06014KT 08/M09 A3008 RMK A01 T00761094  RH  029%=      5-min Rain = 0
KANS 010725Z 06012KT 08/M09 A3008 RMK A01 T00761094  RH  029%=      5-min Rain = 0
KANS 010726Z 06013KT 08/M09 A3008 RMK A01 T00751094  RH  029%=      5-min Rain = 0
KANS 010727Z 06014KT 08/M09 A3008 RMK A01 T00751094  RH  029%=      5-min Rain = 0
KANS 010728Z 06012KT 08/M09 A3008 RMK A01 T00751093  RH  029%=      5-min Rain = 0
KANS 010729Z 06012KT 08/M09 A3008 RMK A01 T00751093  RH  029%=      5-min Rain = 0
KANS 010730Z 06012KT 08/M09 A3008 RMK A01 T00751093  RH  029%=      5-min Rain = 0
KANS 010731Z 06011KT 08/M09 A3009 RMK A01 T00751093  RH  029%=      5-min Rain = 0
KANS 010732Z 06015G21KT 08/M09 A3009 RMK A01 T00751093  RH  029%=      5-min Rain = 0
KANS 010733Z 06013G18KT 07/M09 A3009 RMK A01 T00741093  RH  029%=      5-min Rain = 0
KANS 010734Z 06015KT 07/M09 A3009 RMK A01 T00741093  RH  029%=      5-min Rain = 0
KANS 010735Z 06012G17KT 08/M09 A3009 RMK A01 T00751092  RH  029%=      5-min Rain = 0
KANS 010736Z 06013G19KT 08/M09 A3009 RMK A01 T00751092  RH  029%=      5-min Rain = 0
KANS 010737Z 06014KT 08/M09 A3009 RMK A01 T00751092  RH  030%=      5-min Rain = 0
KANS 010738Z 06013KT 08/M09 A301 RMK A01 T00751092  RH  030%=      5-min Rain = 0
KANS 010739Z 07012KT 08/M09 A301 RMK A01 T00751091  RH  030%=      5-min Rain = 0
KANS 010740Z 06009G14KT 08/M09 A301 RMK A01 T00751091  RH  030%=      5-min Rain = 0
KANS 010741Z 06010KT 08/M09 A301 RMK A01 T00751091  RH  030%=      5-min Rain = 0
KANS 010742Z 07010KT 08/M09 A301 RMK A01 T00751091  RH  030%=      5-min Rain = 0
KANS 010743Z 07008KT 08/M09 A301 RMK A01 T00751090  RH  030%=      5-min Rain = 0
KANS 010744Z 07010KT 08/M09 A301 RMK A01 T00751091  RH  030%=      5-min Rain = 0
KANS 010745Z 07010KT 07/M09 A301 RMK A01 T00741091  RH  030%=      5-min Rain = 0
KANS 010746Z 07008KT 07/M09 A301 RMK A01 T00741090  RH  030%=      5-min Rain = 0
KANS 010747Z 07008KT 07/M09 A301 RMK A01 T00741090  RH  030%=      5-min Rain = 0
KANS 010748Z 07010KT 07/M09 A301 RMK A01 T00731090  RH  030%=      5-min Rain = 0
KANS 010749Z 07009KT 07/M09 A301 RMK A01 T00721090  RH  030%=      5-min Rain = 0
KANS 010750Z 07009KT 07/M09 A301 RMK A01 T00721090  RH  030%=      5-min Rain = 0
KANS 010751Z 06009KT 07/M09 A301 RMK A01 T00711090  RH  031%=      5-min Rain = 0
KANS 010752Z 06010KT 07/M09 A301 RMK A01 T00711090  RH  031%=      5-min Rain = 0
KANS 010753Z 07009KT 07/M09 A301 RMK A01 T00701090  RH  031%=      5-min Rain = 0
KANS 010754Z 06010KT 07/M09 A301 RMK A01 T00701090  RH  031%=      5-min Rain = 0
KANS 010755Z 06012KT 07/M09 A301 RMK A01 T00701089  RH  031%=      5-min Rain = 0
KANS 010756Z 06011KT 07/M09 A301 RMK A01 T00701088  RH  031%=      5-min Rain = 0
KANS 010757Z 06010KT 07/M09 A301 RMK A01 T00701088  RH  031%=      5-min Rain = 0
KANS 010758Z 05008KT 07/M09 A301 RMK A01 T00701087  RH  032%=      5-min Rain = 0
KANS 010759Z 05009KT 07/M09 A301 RMK A01 T00701086  RH  032%=      5-min Rain = 0
KANS 010800Z 05010KT 07/M09 A3011 RMK A01 T00701085  RH  032%=      5-min Rain = 0
KANS 010801Z 05008KT 07/M09 A3011 RMK A01 T00701085  RH  032%=      5-min Rain = 0
KANS 010802Z 05009KT 07/M09 A3011 RMK A01 T00701085  RH  032%=      5-min Rain = 0
KANS 010803Z 06010KT 07/M08 A3011 RMK A01 T00701084  RH  032%=      5-min Rain = 0
KANS 010804Z 05009KT 07/M08 A3011 RMK A01 T00701084  RH  032%=      5-min Rain = 0
KANS 010805Z 06007G12KT 07/M08 A3011 RMK A01 T00701084  RH  032%=      5-min Rain = 0
KANS 010806Z 05008KT 07/M08 A3011 RMK A01 T00701084  RH  033%=      5-min Rain = 0
KANS 010807Z 06007KT 07/M08 A3011 RMK A01 T00701084  RH  033%=      5-min Rain = 0
KANS 010808Z 05006KT 07/M08 A3011 RMK A01 T00701083  RH  033%=      5-min Rain = 0
KANS 010809Z 06006KT 07/M08 A3011 RMK A01 T00701083  RH  033%=      5-min Rain = 0
KANS 010810Z 05008KT 07/M08 A3011 RMK A01 T00701083  RH  033%=      5-min Rain = 0
KANS 010811Z 05009KT 07/M08 A3012 RMK A01 T00701083  RH  033%=      5-min Rain = 0
KANS 010812Z 06009G14KT 07/M08 A3012 RMK A01 T00701083  RH  033%=      5-min Rain = 0
KANS 010813Z 06009KT 07/M08 A3012 RMK A01 T00701083  RH  033%=      5-min Rain = 0
KANS 010814Z 05009KT 07/M08 A3012 RMK A01 T00701083  RH  033%=      5-min Rain = 0
KANS 010815Z 06011KT 07/M08 A3012 RMK A01 T00701083  RH  033%=      5-min Rain = 0
KANS 010816Z 06011KT 07/M08 A3012 RMK A01 T00701083  RH  033%=      5-min Rain = 0
KANS 010817Z 04009KT 07/M08 A3012 RMK A01 T00701083  RH  033%=      5-min Rain = 0
KANS 010818Z 05010G16KT 07/M08 A3012 RMK A01 T00701083  RH  033%=      5-min Rain = 0
KANS 010819Z 06014KT 07/M08 A3012 RMK A01 T00701083  RH  033%=      5-min Rain = 0
KANS 010820Z 06014G20KT 07/M08 A3012 RMK A01 T00701083  RH  033%=      5-min Rain = 0
KANS 010821Z 06014G19KT 07/M08 A3012 RMK A01 T00701083  RH  033%=      5-min Rain = 0
KANS 010822Z 06016G24KT 07/M08 A3012 RMK A01 T00691083  RH  033%=      5-min Rain = 0
KANS 010823Z 06013G18KT 07/M08 A3012 RMK A01 T00691083  RH  033%=      5-min Rain = 0
KANS 010824Z 06014G19KT 07/M08 A3012 RMK A01 T00691083  RH  033%=      5-min Rain = 0
KANS 010825Z 06016KT 07/M08 A3012 RMK A01 T00681083  RH  033%=      5-min Rain = 0
KANS 010826Z 06014KT 07/M08 A3012 RMK A01 T00681083  RH  033%=      5-min Rain = 0
KANS 010827Z 06013KT 07/M08 A3013 RMK A01 T00681083  RH  033%=      5-min Rain = 0
KANS 010828Z 06015KT 07/M08 A3013 RMK A01 T00671083  RH  033%=      5-min Rain = 0
KANS 010829Z 06015G20KT 07/M08 A3013 RMK A01 T00671083  RH  033%=      5-min Rain = 0
KANS 010830Z 06015G20KT 07/M08 A3013 RMK A01 T00671083  RH  033%=      5-min Rain = 0
KANS 010831Z 05015KT 07/M08 A3013 RMK A01 T00671083  RH  034%=      5-min Rain = 0
KANS 010832Z 05013G18KT 07/M08 A3013 RMK A01 T00671083  RH  034%=      5-min Rain = 0
KANS 010833Z 05012KT 07/M08 A3013 RMK A01 T00661083  RH  034%=      5-min Rain = 0
KANS 010834Z 06012KT 07/M08 A3013 RMK A01 T00651083  RH  034%=      5-min Rain = 0
KANS 010835Z 06010KT 07/M08 A3013 RMK A01 T00651083  RH  034%=      5-min Rain = 0
KANS 010836Z 06012KT 06/M08 A3013 RMK A01 T00641083  RH  034%=      5-min Rain = 0
KANS 010837Z 06011KT 06/M08 A3013 RMK A01 T00641083  RH  034%=      5-min Rain = 0
KANS 010838Z 05013KT 06/M08 A3013 RMK A01 T00631083  RH  034%=      5-min Rain = 0
KANS 010839Z 05012KT 06/M08 A3013 RMK A01 T00631083  RH  034%=      5-min Rain = 0
KANS 010840Z 06011KT 06/M08 A3013 RMK A01 T00631083  RH  035%=      5-min Rain = 0
KANS 010841Z 05010KT 06/M08 A3013 RMK A01 T00621083  RH  035%=      5-min Rain = 0
KANS 010842Z 05009KT 06/M08 A3013 RMK A01 T00621082  RH  035%=      5-min Rain = 0
KANS 010843Z 05010KT 06/M08 A3013 RMK A01 T00611083  RH  035%=      5-min Rain = 0
KANS 010844Z 05010KT 06/M08 A3013 RMK A01 T00611083  RH  035%=      5-min Rain = 0
KANS 010845Z 05011KT 06/M08 A3013 RMK A01 T00611082  RH  035%=      5-min Rain = 0
KANS 010846Z 05012KT 06/M08 A3013 RMK A01 T00611082  RH  035%=      5-min Rain = 0
KANS 010847Z 05011KT 06/M08 A3013 RMK A01 T00611082  RH  035%=      5-min Rain = 0
KANS 010848Z 04013KT 06/M08 A3013 RMK A01 T00611082  RH  035%=      5-min Rain = 0
KANS 010849Z 04009KT 06/M08 A3013 RMK A01 T00611082  RH  035%=      5-min Rain = 0
KANS 010850Z 05011KT 06/M08 A3013 RMK A01 T00601082  RH  035%=      5-min Rain = 0
KANS 010851Z 05009KT 06/M08 A3013 RMK A01 T00601082  RH  035%=      5-min Rain = 0
KANS 010852Z 05011KT 06/M08 A3013 RMK A01 T00591082  RH  035%=      5-min Rain = 0
KANS 010853Z 04010KT 06/M08 A3013 RMK A01 T00591082  RH  036%=      5-min Rain = 0
KANS 010854Z 04010KT 06/M08 A3013 RMK A01 T00591082  RH  036%=      5-min Rain = 0
KANS 010855Z 04010KT 06/M08 A3014 RMK A01 T00591082  RH  036%=      5-min Rain = 0
KANS 010856Z 04008KT 06/M08 A3014 RMK A01 T00581082  RH  036%=      5-min Rain = 0
KANS 010857Z 04009KT 06/M08 A3014 RMK A01 T00571083  RH  036%=      5-min Rain = 0
KANS 010858Z 04010KT 06/M08 A3014 RMK A01 T00561083  RH  036%=      5-min Rain = 0
KANS 010859Z 04010KT 06/M08 A3014 RMK A01 T00561082  RH  036%=      5-min Rain = 0
KANS 010900Z 04011G17KT 06/M08 A3014 RMK A01 T00561082  RH  036%=      5-min Rain = 0
KANS 010901Z 04011KT 06/M08 A3014 RMK A01 T00561082  RH  036%=      5-min Rain = 0
KANS 010902Z 04013KT 06/M08 A3014 RMK A01 T00561082  RH  036%=      5-min Rain = 0
KANS 010903Z 04012KT 06/M08 A3014 RMK A01 T00561082  RH  036%=      5-min Rain = 0
KANS 010904Z 04011KT 06/M08 A3014 RMK A01 T00561082  RH  036%=      5-min Rain = 0
KANS 010905Z 04009KT 06/M08 A3014 RMK A01 T00561082  RH  036%=      5-min Rain = 0
KANS 010906Z 04011KT 06/M08 A3014 RMK A01 T00561082  RH  036%=      5-min Rain = 0
KANS 010907Z 04013G18KT 06/M08 A3014 RMK A01 T00561082  RH  036%=      5-min Rain = 0
KANS 010908Z 04015KT 06/M08 A3014 RMK A01 T00561082  RH  036%=      5-min Rain = 0
KANS 010909Z 04012KT 06/M08 A3014 RMK A01 T00571081  RH  036%=      5-min Rain = 0
KANS 010910Z 04011G18KT 06/M08 A3014 RMK A01 T00571082  RH  036%=      5-min Rain = 0
KANS 010911Z 04012KT 06/M08 A3014 RMK A01 T00571081  RH  036%=      5-min Rain = 0
KANS 010912Z 04013KT 06/M08 A3014 RMK A01 T00571081  RH  036%=      5-min Rain = 0
KANS 010913Z 04013G18KT 06/M08 A3014 RMK A01 T00571081  RH  036%=      5-min Rain = 0
KANS 010914Z 05012KT 06/M08 A3014 RMK A01 T00581081  RH  036%=      5-min Rain = 0
KANS 010915Z 04013KT 06/M08 A3014 RMK A01 T00581080  RH  036%=      5-min Rain = 0
KANS 010916Z 05011KT 06/M08 A3014 RMK A01 T00581080  RH  036%=      5-min Rain = 0
KANS 010917Z 05012G17KT 06/M08 A3014 RMK A01 T00581080  RH  036%=      5-min Rain = 0
KANS 010918Z 04013KT 06/M08 A3014 RMK A01 T00581080  RH  036%=      5-min Rain = 0
KANS 010919Z 05014KT 06/M08 A3014 RMK A01 T00591080  RH  036%=      5-min Rain = 0
KANS 010920Z 04014G20KT 06/M08 A3014 RMK A01 T00591080  RH  036%=      5-min Rain = 0
KANS 010921Z 04015G21KT 06/M08 A3014 RMK A01 T00591080  RH  036%=      5-min Rain = 0
KANS 010922Z 04015G20KT 06/M08 A3014 RMK A01 T00591080  RH  036%=      5-min Rain = 0
KANS 010923Z 04015G20KT 06/M08 A3014 RMK A01 T00591080  RH  036%=      5-min Rain = 0
KANS 010924Z 04016KT 06/M08 A3014 RMK A01 T00591080  RH  036%=      5-min Rain = 0
KANS 010925Z 04016KT 06/M08 A3014 RMK A01 T00591079  RH  036%=      5-min Rain = 0
KANS 010926Z 04017G22KT 06/M08 A3014 RMK A01 T00591079  RH  036%=      5-min Rain = 0
KANS 010927Z 04017G23KT 06/M08 A3015 RMK A01 T00591079  RH  036%=      5-min Rain = 0
KANS 010928Z 04017G23KT 06/M08 A3015 RMK A01 T00591079  RH  036%=      5-min Rain = 0
KANS 010929Z 04015KT 06/M08 A3015 RMK A01 T00591079  RH  036%=      5-min Rain = 0
KANS 010930Z 04015G21KT 06/M08 A3015 RMK A01 T00591079  RH  036%=      5-min Rain = 0
KANS 010931Z 04013G18KT 06/M08 A3015 RMK A01 T00591078  RH  036%=      5-min Rain = 0
KANS 010932Z 05017G24KT 06/M08 A3015 RMK A01 T00591078  RH  037%=      5-min Rain = 0
KANS 010933Z 04016KT 06/M08 A3015 RMK A01 T00591078  RH  037%=      5-min Rain = 0
KANS 010934Z 04016G24KT 06/M08 A3015 RMK A01 T00591077  RH  037%=      5-min Rain = 0
KANS 010935Z 05018G23KT 06/M08 A3015 RMK A01 T00591077  RH  037%=      5-min Rain = 0
KANS 010936Z 05018G23KT 06/M08 A3015 RMK A01 T00591077  RH  037%=      5-min Rain = 0
KANS 010937Z 05016G23KT 06/M08 A3015 RMK A01 T00591077  RH  037%=      5-min Rain = 0
KANS 010938Z 05017G24KT 06/M08 A3015 RMK A01 T00591078  RH  037%=      5-min Rain = 0
KANS 010939Z 05017G23KT 06/M08 A3014 RMK A01 T00591078  RH  037%=      5-min Rain = 0
KANS 010940Z 05016G21KT 06/M08 A3015 RMK A01 T00591078  RH  037%=      5-min Rain = 0
KANS 010941Z 05017G22KT 06/M08 A3014 RMK A01 T00591078  RH  037%=      5-min Rain = 0
KANS 010942Z 05017G22KT 06/M08 A3015 RMK A01 T00581078  RH  037%=      5-min Rain = 0
KANS 010943Z 05015G20KT 06/M08 A3015 RMK A01 T00581079  RH  037%=      5-min Rain = 0
KANS 010944Z 05018G23KT 06/M08 A3014 RMK A01 T00581079  RH  037%=      5-min Rain = 0
KANS 010945Z 05017G26KT 06/M08 A3014 RMK A01 T00581079  RH  037%=      5-min Rain = 0
KANS 010946Z 05017G25KT 06/M08 A3014 RMK A01 T00581079  RH  037%=      5-min Rain = 0
KANS 010947Z 05018G25KT 06/M08 A3015 RMK A01 T00571080  RH  037%=      5-min Rain = 0
KANS 010948Z 04015G23KT 06/M08 A3015 RMK A01 T00571080  RH  037%=      5-min Rain = 0
KANS 010949Z 04017G24KT 06/M08 A3015 RMK A01 T00571080  RH  037%=      5-min Rain = 0
KANS 010950Z 04017G24KT 06/M08 A3015 RMK A01 T00571081  RH  037%=      5-min Rain = 0
KANS 010951Z 04016G23KT 06/M08 A3015 RMK A01 T00571081  RH  037%=      5-min Rain = 0
KANS 010952Z 05021G28KT 06/M08 A3015 RMK A01 T00561080  RH  037%=      5-min Rain = 0
KANS 010953Z 04017G23KT 06/M08 A3015 RMK A01 T00561080  RH  037%=      5-min Rain = 0
KANS 010954Z 04014G20KT 06/M08 A3015 RMK A01 T00561080  RH  037%=      5-min Rain = 0
KANS 010955Z 05015G20KT 06/M08 A3015 RMK A01 T00551080  RH  037%=      5-min Rain = 0
KANS 010956Z 05016G22KT 06/M08 A3015 RMK A01 T00551080  RH  037%=      5-min Rain = 0
KANS 010957Z 04013KT 06/M08 A3015 RMK A01 T00551080  RH  037%=      5-min Rain = 0
KANS 010958Z 05012G17KT 06/M08 A3016 RMK A01 T00551079  RH  037%=      5-min Rain = 0
KANS 010959Z 04016G21KT 06/M08 A3016 RMK A01 T00551079  RH  037%=      5-min Rain = 0
KANS 011000Z 04014G19KT 06/M08 A3016 RMK A01 T00551079  RH  038%=      5-min Rain = 0
KANS 011001Z 04011G16KT 06/M08 A3016 RMK A01 T00551078  RH  038%=      5-min Rain = 0
KANS 011002Z 04015KT 06/M08 A3016 RMK A01 T00551078  RH  038%=      5-min Rain = 0
KANS 011003Z 04012G17KT 05/M08 A3016 RMK A01 T00541078  RH  038%=      5-min Rain = 0
KANS 011004Z 04013G18KT 05/M08 A3016 RMK A01 T00541078  RH  038%=      5-min Rain = 0
KANS 011005Z 04014KT 05/M08 A3016 RMK A01 T00541078  RH  038%=      5-min Rain = 0
KANS 011006Z 04014KT 05/M08 A3016 RMK A01 T00541077  RH  038%=      5-min Rain = 0
KANS 011007Z 05013KT 05/M08 A3016 RMK A01 T00541077  RH  038%=      5-min Rain = 0
KANS 011008Z 05012KT 05/M08 A3017 RMK A01 T00541077  RH  038%=      5-min Rain = 0
KANS 011009Z 04014KT 05/M08 A3016 RMK A01 T00541077  RH  038%=      5-min Rain = 0
KANS 011010Z 05011G17KT 05/M08 A3017 RMK A01 T00541077  RH  038%=      5-min Rain = 0
KANS 011011Z 04014KT 05/M08 A3017 RMK A01 T00541076  RH  038%=      5-min Rain = 0
KANS 011012Z 04013KT 05/M08 A3017 RMK A01 T00541076  RH  038%=      5-min Rain = 0
KANS 011013Z 04013KT 05/M08 A3017 RMK A01 T00541076  RH  038%=      5-min Rain = 0
KANS 011014Z 04011KT 05/M08 A3017 RMK A01 T00541076  RH  038%=      5-min Rain = 0
KANS 011015Z 04011KT 05/M08 A3017 RMK A01 T00541076  RH  038%=      5-min Rain = 0
KANS 011016Z 04012KT 05/M08 A3017 RMK A01 T00541076  RH  039%=      5-min Rain = 0
KANS 011017Z 05012KT 05/M08 A3017 RMK A01 T00541076  RH  039%=      5-min Rain = 0
KANS 011018Z 04013G18KT 05/M08 A3017 RMK A01 T00541076  RH  039%=      5-min Rain = 0
KANS 011019Z 05013G18KT 05/M08 A3017 RMK A01 T00541075  RH  039%=      5-min Rain = 0
KANS 011020Z 05013KT 05/M08 A3017 RMK A01 T00541075  RH  039%=      5-min Rain = 0
KANS 011021Z 05013KT 05/M08 A3017 RMK A01 T00541075  RH  039%=      5-min Rain = 0
KANS 011022Z 05012KT 05/M08 A3017 RMK A01 T00541075  RH  039%=      5-min Rain = 0
KANS 011023Z 05012KT 05/M08 A3017 RMK A01 T00541075  RH  039%=      5-min Rain = 0
KANS 011024Z 04010KT 05/M08 A3018 RMK A01 T00541075  RH  039%=      5-min Rain = 0
KANS 011025Z 05011KT 05/M08 A3018 RMK A01 T00541075  RH  039%=      5-min Rain = 0
KANS 011026Z 04010KT 05/M08 A3018 RMK A01 T00541075  RH  039%=      5-min Rain = 0
KANS 011027Z 04009KT 05/M08 A3018 RMK A01 T00541075  RH  039%=      5-min Rain = 0
KANS 011028Z 05010KT 05/M08 A3018 RMK A01 T00541075  RH  039%=      5-min Rain = 0
KANS 011029Z 04010KT 05/M08 A3018 RMK A01 T00541075  RH  039%=      5-min Rain = 0
KANS 011030Z 04013KT 05/M08 A3018 RMK A01 T00541075  RH  039%=      5-min Rain = 0
KANS 011031Z 04012KT 05/M08 A3018 RMK A01 T00541075  RH  039%=      5-min Rain = 0
KANS 011032Z 04009G15KT 05/M08 A3018 RMK A01 T00541075  RH  039%=      5-min Rain = 0
KANS 011033Z 04010KT 05/M08 A3018 RMK A01 T00541075  RH  039%=      5-min Rain = 0
KANS 011034Z 04010KT 05/M08 A3018 RMK A01 T00541075  RH  039%=      5-min Rain = 0
KANS 011035Z 04011KT 05/M08 A3018 RMK A01 T00531076  RH  039%=      5-min Rain = 0
KANS 011036Z 04011G16KT 05/M08 A3018 RMK A01 T00531076  RH  039%=      5-min Rain = 0
KANS 011037Z 04011KT 05/M08 A3018 RMK A01 T00531076  RH  039%=      5-min Rain = 0
KANS 011038Z 04010KT 05/M08 A3019 RMK A01 T00531076  RH  039%=      5-min Rain = 0
KANS 011039Z 05010KT 05/M08 A3019 RMK A01 T00531076  RH  039%=      5-min Rain = 0
KANS 011040Z 05007KT 05/M08 A3019 RMK A01 T00531076  RH  039%=      5-min Rain = 0
KANS 011041Z 05008KT 05/M08 A3019 RMK A01 T00531076  RH  039%=      5-min Rain = 0
KANS 011042Z 04007KT 05/M08 A302 RMK A01 T00531076  RH  039%=      5-min Rain = 0
KANS 011043Z 04008KT 05/M08 A302 RMK A01 T00531076  RH  039%=      5-min Rain = 0
KANS 011044Z 04008KT 05/M08 A302 RMK A01 T00531076  RH  039%=      5-min Rain = 0
KANS 011045Z 03007KT 05/M08 A302 RMK A01 T00531076  RH  039%=      5-min Rain = 0
KANS 011046Z 03007KT 05/M08 A3019 RMK A01 T00531076  RH  039%=      5-min Rain = 0
KANS 011047Z 03009KT 05/M08 A3019 RMK A01 T00531076  RH  039%=      5-min Rain = 0
KANS 011048Z 02012KT 05/M08 A3019 RMK A01 T00531079  RH  038%=      5-min Rain = 0
KANS 011049Z 03014KT 05/M08 A3019 RMK A01 T00531083  RH  037%=      5-min Rain = 0
KANS 011050Z 03011KT 05/M09 A3019 RMK A01 T00531085  RH  036%=      5-min Rain = 0
KANS 011051Z 03012KT 05/M09 A3019 RMK A01 T00531086  RH  036%=      5-min Rain = 0
KANS 011052Z 03013KT 05/M09 A3019 RMK A01 T00531086  RH  036%=      5-min Rain = 0
KANS 011053Z 03012KT 05/M09 A3019 RMK A01 T00531087  RH  036%=      5-min Rain = 0
KANS 011054Z 04010KT 05/M09 A3019 RMK A01 T00531087  RH  036%=      5-min Rain = 0
KANS 011055Z 04011KT 05/M09 A3019 RMK A01 T00531087  RH  036%=      5-min Rain = 0
KANS 011056Z 03011KT 05/M09 A3019 RMK A01 T00531087  RH  036%=      5-min Rain = 0
KANS 011057Z 03012KT 05/M09 A3019 RMK A01 T00531087  RH  036%=      5-min Rain = 0
KANS 011058Z 03013KT 05/M09 A3019 RMK A01 T00531087  RH  036%=      5-min Rain = 0
KANS 011059Z 03014KT 05/M09 A3019 RMK A01 T00531087  RH  036%=      5-min Rain = 0
KANS 011100Z 03011KT 05/M09 A3019 RMK A01 T00531087  RH  036%=      5-min Rain = 0
KANS 011101Z 03012KT 05/M09 A3019 RMK A01 T00521087  RH  036%=      5-min Rain = 0
KANS 011102Z 03012G18KT 05/M09 A3019 RMK A01 T00521087  RH  036%=      5-min Rain = 0
KANS 011103Z 03014KT 05/M09 A3019 RMK A01 T00521087  RH  036%=      5-min Rain = 0
KANS 011104Z 03014KT 05/M09 A3019 RMK A01 T00521088  RH  036%=      5-min Rain = 0
KANS 011105Z 03014KT 05/M09 A3019 RMK A01 T00521088  RH  036%=      5-min Rain = 0
KANS 011106Z 03014KT 05/M09 A3019 RMK A01 T00521088  RH  036%=      5-min Rain = 0
KANS 011107Z 03015KT 05/M09 A302 RMK A01 T00521088  RH  036%=      5-min Rain = 0
KANS 011108Z 03013KT 05/M09 A302 RMK A01 T00521088  RH  036%=      5-min Rain = 0
KANS 011109Z 03011KT 05/M09 A302 RMK A01 T00521088  RH  036%=      5-min Rain = 0
KANS 011110Z 03011KT 05/M09 A302 RMK A01 T00521087  RH  036%=      5-min Rain = 0
KANS 011111Z 03010KT 05/M09 A302 RMK A01 T00521086  RH  036%=      5-min Rain = 0
KANS 011112Z 03011KT 05/M09 A302 RMK A01 T00511086  RH  036%=      5-min Rain = 0
KANS 011113Z 03012KT 05/M09 A302 RMK A01 T00511085  RH  037%=      5-min Rain = 0
KANS 011114Z 02013KT 05/M09 A302 RMK A01 T00511085  RH  037%=      5-min Rain = 0
KANS 011115Z 03016KT 05/M08 A302 RMK A01 T00511084  RH  037%=      5-min Rain = 0
KANS 011116Z 03015G20KT 05/M08 A302 RMK A01 T00511083  RH  037%=      5-min Rain = 0
KANS 011117Z 03016G22KT 05/M08 A302 RMK A01 T00501083  RH  037%=      5-min Rain = 0
KANS 011118Z 03014G20KT 05/M08 A302 RMK A01 T00501082  RH  038%=      5-min Rain = 0
KANS 011119Z 03017KT 05/M08 A3019 RMK A01 T00501082  RH  038%=      5-min Rain = 0
KANS 011120Z 03016KT 05/M08 A3019 RMK A01 T00491082  RH  038%=      5-min Rain = 0
KANS 011121Z 03017G23KT 05/M08 A3019 RMK A01 T00491082  RH  038%=      5-min Rain = 0
KANS 011122Z 03016G21KT 05/M08 A3019 RMK A01 T00491081  RH  038%=      5-min Rain = 0
KANS 011123Z 03017G22KT 05/M08 A3019 RMK A01 T00491081  RH  038%=      5-min Rain = 0
KANS 011124Z 03015G20KT 05/M08 A3019 RMK A01 T00491081  RH  038%=      5-min Rain = 0
KANS 011125Z 03015KT 05/M08 A3019 RMK A01 T00491080  RH  039%=      5-min Rain = 0
KANS 011126Z 03014KT 05/M08 A3019 RMK A01 T00481080  RH  039%=      5-min Rain = 0
KANS 011127Z 03015KT 05/M08 A3019 RMK A01 T00481080  RH  039%=      5-min Rain = 0
KANS 011128Z 03016KT 05/M08 A3019 RMK A01 T00481080  RH  039%=      5-min Rain = 0
KANS 011129Z 03013KT 05/M08 A3019 RMK A01 T00481080  RH  039%=      5-min Rain = 0
KANS 011130Z 03012KT 05/M08 A3019 RMK A01 T00481080  RH  039%=      5-min Rain = 0
KANS 011131Z 04010KT 05/M08 A3019 RMK A01 T00481080  RH  039%=      5-min Rain = 0
KANS 011132Z 03012KT 05/M08 A3019 RMK A01 T00481080  RH  039%=      5-min Rain = 0
KANS 011133Z 03012G17KT 05/M08 A302 RMK A01 T00481080  RH  039%=      5-min Rain = 0
KANS 011134Z 03012KT 05/M08 A302 RMK A01 T00481080  RH  039%=      5-min Rain = 0
KANS 011135Z 03013G19KT 05/M08 A302 RMK A01 T00481080  RH  039%=      5-min Rain = 0
KANS 011136Z 04012KT 05/M08 A302 RMK A01 T00481080  RH  039%=      5-min Rain = 0
KANS 011137Z 04013KT 05/M08 A302 RMK A01 T00481081  RH  039%=      5-min Rain = 0
KANS 011138Z 04012KT 05/M08 A302 RMK A01 T00481081  RH  039%=      5-min Rain = 0
KANS 011139Z 03011KT 05/M08 A302 RMK A01 T00481081  RH  039%=      5-min Rain = 0
KANS 011140Z 03012KT 05/M08 A302 RMK A01 T00491080  RH  039%=      5-min Rain = 0
KANS 011141Z 03012KT 05/M08 A3021 RMK A01 T00481080  RH  039%=      5-min Rain = 0
KANS 011142Z 04009G14KT 05/M08 A3021 RMK A01 T00481080  RH  039%=      5-min Rain = 0
KANS 011143Z 04012G17KT 05/M08 A3021 RMK A01 T00491080  RH  039%=      5-min Rain = 0
KANS 011144Z 04013KT 05/M08 A3021 RMK A01 T00481080  RH  039%=      5-min Rain = 0
KANS 011145Z 04012KT 05/M08 A3021 RMK A01 T00481081  RH  039%=      5-min Rain = 0
KANS 011146Z 03011KT 05/M08 A3021 RMK A01 T00481081  RH  039%=      5-min Rain = 0
KANS 011147Z 03010KT 05/M08 A3021 RMK A01 T00481080  RH  039%=      5-min Rain = 0
KANS 011148Z 04010KT 05/M08 A3021 RMK A01 T00481079  RH  039%=      5-min Rain = 0
KANS 011149Z 04012KT 05/M08 A3021 RMK A01 T00481079  RH  039%=      5-min Rain = 0
KANS 011150Z 04011KT 05/M08 A302 RMK A01 T00481079  RH  039%=      5-min Rain = 0
KANS 011151Z 04011KT 05/M08 A302 RMK A01 T00481079  RH  039%=      5-min Rain = 0
KANS 011152Z 04011KT 05/M08 A302 RMK A01 T00481079  RH  039%=      5-min Rain = 0
KANS 011153Z 03011KT 05/M08 A302 RMK A01 T00481078  RH  040%=      5-min Rain = 0
KANS 011154Z 04012KT 05/M08 A302 RMK A01 T00481078  RH  040%=      5-min Rain = 0
KANS 011155Z 04014KT 05/M08 A302 RMK A01 T00481079  RH  039%=      5-min Rain = 0
KANS 011156Z 04013KT 05/M08 A302 RMK A01 T00471080  RH  039%=      5-min Rain = 0
KANS 011157Z 04012KT 05/M08 A302 RMK A01 T00471080  RH  039%=      5-min Rain = 0
KANS 011158Z 04012KT 05/M08 A302 RMK A01 T00471080  RH  039%=      5-min Rain = 0
KANS 011159Z 04010KT 05/M08 A3021 RMK A01 T00471080  RH  039%=      5-min Rain = 0
KANS 011200Z 04010KT 05/M08 A3021 RMK A01 T00471079  RH  039%=      5-min Rain = 0
KANS 011201Z 04009KT 05/M08 A3021 RMK A01 T00471079  RH  040%=      5-min Rain = 0
KANS 011202Z 04008KT 05/M08 A3021 RMK A01 T00471079  RH  040%=      5-min Rain = 0
KANS 011203Z 04008KT 05/M08 A3021 RMK A01 T00471079  RH  040%=      5-min Rain = 0
KANS 011204Z 04009KT 05/M08 A3021 RMK A01 T00471078  RH  040%=      5-min Rain = 0
KANS 011205Z 04007KT 05/M08 A3021 RMK A01 T00471078  RH  040%=      5-min Rain = 0
KANS 011206Z 04009KT 05/M08 A3021 RMK A01 T00471078  RH  040%=      5-min Rain = 0
KANS 011207Z 04008KT 05/M08 A3021 RMK A01 T00471078  RH  040%=      5-min Rain = 0
KANS 011208Z 04011KT 05/M08 A3021 RMK A01 T00471078  RH  040%=      5-min Rain = 0
KANS 011209Z 04011G16KT 05/M08 A3021 RMK A01 T00471078  RH  040%=      5-min Rain = 0
KANS 011210Z 04010KT 05/M08 A3021 RMK A01 T00471078  RH  040%=      5-min Rain = 0
KANS 011211Z 04013G19KT 05/M08 A3021 RMK A01 T00471078  RH  040%=      5-min Rain = 0
KANS 011212Z 03015KT 05/M08 A3021 RMK A01 T00461078  RH  040%=      5-min Rain = 0
KANS 011213Z 03014KT 05/M08 A3021 RMK A01 T00461079  RH  040%=      5-min Rain = 0
KANS 011214Z 03012KT 05/M08 A302 RMK A01 T00461078  RH  040%=      5-min Rain = 0
KANS 011215Z 03012KT 05/M08 A302 RMK A01 T00461078  RH  040%=      5-min Rain = 0
KANS 011216Z 04011KT 05/M08 A302 RMK A01 T00461077  RH  040%=      5-min Rain = 0
KANS 011217Z 04012KT 05/M08 A3021 RMK A01 T00461077  RH  041%=      5-min Rain = 0
KANS 011218Z 04012KT 05/M08 A3021 RMK A01 T00451077  RH  041%=      5-min Rain = 0
KANS 011219Z 04009KT 05/M08 A3021 RMK A01 T00451077  RH  041%=      5-min Rain = 0
KANS 011220Z 03008KT 05/M08 A3022 RMK A01 T00451076  RH  041%=      5-min Rain = 0
KANS 011221Z 04007KT 05/M08 A3022 RMK A01 T00451075  RH  041%=      5-min Rain = 0
KANS 011222Z 04008KT 05/M07 A3022 RMK A01 T00451074  RH  042%=      5-min Rain = 0
KANS 011223Z 04008KT 05/M07 A3022 RMK A01 T00451074  RH  042%=      5-min Rain = 0
KANS 011224Z 03010KT 05/M07 A3023 RMK A01 T00451074  RH  042%=      5-min Rain = 0
KANS 011225Z 04009KT 05/M08 A3023 RMK A01 T00451075  RH  042%=      5-min Rain = 0
KANS 011226Z 04007KT 05/M08 A3023 RMK A01 T00451075  RH  042%=      5-min Rain = 0
KANS 011227Z 04009KT 05/M08 A3023 RMK A01 T00451075  RH  041%=      5-min Rain = 0
KANS 011228Z 04010KT 05/M08 A3023 RMK A01 T00451075  RH  041%=      5-min Rain = 0
KANS 011229Z 04011KT 05/M08 A3023 RMK A01 T00451076  RH  041%=      5-min Rain = 0
KANS 011230Z 04011KT 05/M08 A3023 RMK A01 T00451076  RH  041%=      5-min Rain = 0
KANS 011231Z 04010KT 05/M08 A3023 RMK A01 T00451076  RH  041%=      5-min Rain = 0
KANS 011232Z 04011KT 05/M08 A3023 RMK A01 T00451077  RH  041%=      5-min Rain = 0
KANS 011233Z 05007KT 05/M08 A3024 RMK A01 T00451076  RH  041%=      5-min Rain = 0
KANS 011234Z 05008KT 05/M08 A3024 RMK A01 T00451075  RH  042%=      5-min Rain = 0
KANS 011235Z 05011KT 05/M08 A3024 RMK A01 T00451075  RH  041%=      5-min Rain = 0
KANS 011236Z 05009KT 05/M08 A3024 RMK A01 T00451075  RH  041%=      5-min Rain = 0
KANS 011237Z 05010KT 05/M08 A3024 RMK A01 T00451075  RH  042%=      5-min Rain = 0
KANS 011238Z 04010KT 04/M08 A3024 RMK A01 T00441075  RH  042%=      5-min Rain = 0
KANS 011239Z 05010KT 04/M08 A3024 RMK A01 T00441075  RH  042%=      5-min Rain = 0
KANS 011240Z 05008KT 04/M08 A3024 RMK A01 T00441075  RH  042%=      5-min Rain = 0
KANS 011241Z 04008KT 04/M07 A3024 RMK A01 T00441074  RH  042%=      5-min Rain = 0
KANS 011242Z 04009KT 04/M07 A3024 RMK A01 T00441073  RH  042%=      5-min Rain = 0
KANS 011243Z 04009KT 04/M07 A3024 RMK A01 T00441073  RH  042%=      5-min Rain = 0
KANS 011244Z 03008KT 04/M07 A3024 RMK A01 T00441073  RH  042%=      5-min Rain = 0
KANS 011245Z 04011KT 04/M07 A3024 RMK A01 T00441074  RH  042%=      5-min Rain = 0
KANS 011246Z 04011KT 04/M08 A3024 RMK A01 T00441075  RH  042%=      5-min Rain = 0
KANS 011247Z 03009KT 04/M08 A3024 RMK A01 T00431075  RH  042%=      5-min Rain = 0
KANS 011248Z 03011KT 04/M07 A3024 RMK A01 T00431074  RH  042%=      5-min Rain = 0
KANS 011249Z 04010KT 04/M07 A3024 RMK A01 T00431074  RH  042%=      5-min Rain = 0
KANS 011250Z 04010KT 04/M07 A3024 RMK A01 T00431074  RH  043%=      5-min Rain = 0
KANS 011251Z 04011KT 04/M07 A3024 RMK A01 T00421073  RH  043%=      5-min Rain = 0
KANS 011252Z 05009KT 04/M07 A3024 RMK A01 T00421073  RH  043%=      5-min Rain = 0
KANS 011253Z 05009KT 04/M07 A3024 RMK A01 T00421073  RH  043%=      5-min Rain = 0
KANS 011254Z 05012G17KT 04/M07 A3024 RMK A01 T00421074  RH  042%=      5-min Rain = 0
KANS 011255Z 05011G16KT 04/M08 A3025 RMK A01 T00421075  RH  042%=      5-min Rain = 0
KANS 011256Z 06009KT 04/M07 A3025 RMK A01 T00421074  RH  043%=      5-min Rain = 0
KANS 011257Z 05010KT 04/M07 A3025 RMK A01 T00421073  RH  043%=      5-min Rain = 0
KANS 011258Z 06011KT 04/M07 A3025 RMK A01 T00411073  RH  043%=      5-min Rain = 0
KANS 011259Z 06011KT 04/M07 A3025 RMK A01 T00411072  RH  044%=      5-min Rain = 0
KANS 011300Z 05009KT 04/M07 A3025 RMK A01 T00411071  RH  044%=      5-min Rain = 0
KANS 011301Z 05009KT 04/M07 A3025 RMK A01 T00401068  RH  045%=      5-min Rain = 0
KANS 011302Z 05011KT 04/M07 A3025 RMK A01 T00401067  RH  045%=      5-min Rain = 0
KANS 011303Z 04010KT 04/M07 A3024 RMK A01 T00401065  RH  046%=      5-min Rain = 0
KANS 011304Z 05010KT 04/M06 A3024 RMK A01 T00391064  RH  047%=      5-min Rain = 0
KANS 011305Z 05009KT 04/M06 A3024 RMK A01 T00391062  RH  047%=      5-min Rain = 0
KANS 011306Z 04011KT 04/M06 A3024 RMK A01 T00391062  RH  048%=      5-min Rain = 0
KANS 011307Z 04010KT 04/M06 A3025 RMK A01 T00391063  RH  047%=      5-min Rain = 0
KANS 011308Z 04009KT 04/M07 A3025 RMK A01 T00391065  RH  047%=      5-min Rain = 0
KANS 011309Z 04010KT 04/M06 A3025 RMK A01 T00381064  RH  047%=      5-min Rain = 0
KANS 011310Z 05010KT 04/M06 A3025 RMK A01 T00381064  RH  047%=      5-min Rain = 0
KANS 011311Z 04009KT 04/M06 A3026 RMK A01 T00381064  RH  047%=      5-min Rain = 0
KANS 011312Z 04008KT 04/M06 A3026 RMK A01 T00381063  RH  047%=      5-min Rain = 0
KANS 011313Z 04010KT 04/M06 A3026 RMK A01 T00381063  RH  047%=      5-min Rain = 0
KANS 011314Z 03008KT 04/M07 A3026 RMK A01 T00381065  RH  047%=      5-min Rain = 0
KANS 011315Z 03007KT 04/M06 A3026 RMK A01 T00381064  RH  047%=      5-min Rain = 0
KANS 011316Z 03008KT 04/M07 A3026 RMK A01 T00381065  RH  047%=      5-min Rain = 0
KANS 011317Z 02007KT 04/M07 A3027 RMK A01 T00381065  RH  047%=      5-min Rain = 0
KANS 011318Z 02008KT 04/M07 A3027 RMK A01 T00381065  RH  047%=      5-min Rain = 0
KANS 011319Z 03008KT 04/M07 A3027 RMK A01 T00381065  RH  047%=      5-min Rain = 0
KANS 011320Z 02008KT 04/M07 A3027 RMK A01 T00381065  RH  047%=      5-min Rain = 0
KANS 011321Z 02008KT 04/M07 A3027 RMK A01 T00381065  RH  047%=      5-min Rain = 0
KANS 011322Z 02009KT 04/M06 A3027 RMK A01 T00381064  RH  047%=      5-min Rain = 0
KANS 011323Z 03009KT 04/M07 A3027 RMK A01 T00381065  RH  047%=      5-min Rain = 0
KANS 011324Z 02009KT 04/M07 A3027 RMK A01 T00371065  RH  047%=      5-min Rain = 0
KANS 011325Z 02011KT 04/M07 A3027 RMK A01 T00371065  RH  047%=      5-min Rain = 0
KANS 011326Z 03012KT 04/M07 A3028 RMK A01 T00371065  RH  047%=      5-min Rain = 0
KANS 011327Z 02011KT 04/M06 A3028 RMK A01 T00371063  RH  048%=      5-min Rain = 0
KANS 011328Z 03010KT 04/M06 A3028 RMK A01 T00371061  RH  049%=      5-min Rain = 0
KANS 011329Z 03010KT 04/M06 A3028 RMK A01 T00361061  RH  049%=      5-min Rain = 0
KANS 011330Z 03007KT 04/M06 A3028 RMK A01 T00361060  RH  050%=      5-min Rain = 0
KANS 011331Z 04008KT 04/M06 A3028 RMK A01 T00361058  RH  050%=      5-min Rain = 0
KANS 011332Z 03011KT 04/M06 A3027 RMK A01 T00361058  RH  050%=      5-min Rain = 0
KANS 011333Z 03010KT 04/M06 A3027 RMK A01 T00361060  RH  050%=      5-min Rain = 0
KANS 011334Z 03011KT 04/M06 A3027 RMK A01 T00361060  RH  049%=      5-min Rain = 0
KANS 011335Z 03010KT 04/M06 A3027 RMK A01 T00361060  RH  050%=      5-min Rain = 0
KANS 011336Z 03010KT 04/M06 A3027 RMK A01 T00361061  RH  049%=      5-min Rain = 0
KANS 011337Z 02012G17KT 04/M06 A3027 RMK A01 T00361060  RH  049%=      5-min Rain = 0
KANS 011338Z 02012KT 04/M06 A3027 RMK A01 T00361060  RH  050%=      5-min Rain = 0
KANS 011339Z 03012KT 04/M06 A3027 RMK A01 T00361059  RH  050%=      5-min Rain = 0
KANS 011340Z 03012KT 04/M06 A3027 RMK A01 T00361060  RH  050%=      5-min Rain = 0
KANS 011341Z 03012KT 04/M06 A3027 RMK A01 T00361060  RH  049%=      5-min Rain = 0
KANS 011342Z 03012KT 04/M06 A3027 RMK A01 T00361059  RH  050%=      5-min Rain = 0
KANS 011343Z 03011KT 04/M06 A3027 RMK A01 T00361060  RH  050%=      5-min Rain = 0
KANS 011344Z 03011KT 04/M06 A3027 RMK A01 T00351059  RH  050%=      5-min Rain = 0
KANS 011345Z 03011KT 04/M06 A3027 RMK A01 T00351058  RH  051%=      5-min Rain = 0
KANS 011346Z 04010KT 04/M06 A3028 RMK A01 T00351057  RH  051%=      5-min Rain = 0
KANS 011347Z 04010KT 04/M06 A3028 RMK A01 T00351057  RH  051%=      5-min Rain = 0
KANS 011348Z 04009KT 03/M06 A3028 RMK A01 T00341056  RH  052%=      5-min Rain = 0
KANS 011349Z 04008KT 03/M05 A3028 RMK A01 T00341053  RH  053%=      5-min Rain = 0
KANS 011350Z 05011KT 03/M05 A3028 RMK A01 T00341051  RH  054%=      5-min Rain = 0
KANS 011351Z 05011KT 03/M05 A3028 RMK A01 T00331052  RH  054%=      5-min Rain = 0
KANS 011352Z 04012KT 03/M05 A3028 RMK A01 T00321052  RH  054%=      5-min Rain = 0
KANS 011353Z 04009KT 03/M05 A3028 RMK A01 T00321050  RH  055%=      5-min Rain = 0
KANS 011354Z 03012KT 03/M05 A3028 RMK A01 T00311049  RH  056%=      5-min Rain = 0
KANS 011355Z 04011G16KT 03/M05 A3028 RMK A01 T00311049  RH  056%=      5-min Rain = 0
KANS 011356Z 04011KT 03/M05 A3028 RMK A01 T00301048  RH  056%=      5-min Rain = 0
KANS 011357Z 03010KT 03/M05 A3028 RMK A01 T00301048  RH  057%=      5-min Rain = 0
KANS 011358Z 04010KT 03/M05 A3028 RMK A01 T00301047  RH  057%=      5-min Rain = 0
KANS 011359Z 04008KT 03/M05 A3028 RMK A01 T00291046  RH  058%=      5-min Rain = 0
KANS 011400Z 04009KT 03/M05 A3029 RMK A01 T00291045  RH  058%=      5-min Rain = 0
KANS 011401Z 04008KT 03/M05 A3029 RMK A01 T00291046  RH  058%=      5-min Rain = 0
KANS 011402Z 04007KT 03/M05 A3029 RMK A01 T00291045  RH  058%=      5-min Rain = 0
KANS 011403Z 03005KT 03/M05 A3029 RMK A01 T00291045  RH  058%=      5-min Rain = 0
KANS 011404Z 02008KT 03/M04 A3029 RMK A01 T00291044  RH  059%=      5-min Rain = 0
KANS 011405Z 03006KT 03/M05 A303 RMK A01 T00291045  RH  058%=      5-min Rain = 0
KANS 011406Z 04007KT 03/M05 A303 RMK A01 T00291045  RH  058%=      5-min Rain = 0
KANS 011407Z 04005KT 03/M05 A303 RMK A01 T00291048  RH  057%=      5-min Rain = 0
KANS 011408Z 04005KT 03/M05 A303 RMK A01 T00301046  RH  058%=      5-min Rain = 0
KANS 011409Z 04005KT 03/M05 A303 RMK A01 T00301046  RH  057%=      5-min Rain = 0
KANS 011410Z 04005KT 03/M05 A303 RMK A01 T00301048  RH  057%=      5-min Rain = 0
KANS 011411Z 03004KT 03/M05 A303 RMK A01 T00301046  RH  057%=      5-min Rain = 0
KANS 011412Z 05005KT 03/M04 A303 RMK A01 T00301044  RH  058%=      5-min Rain = 0
KANS 011413Z 03006KT 03/M05 A303 RMK A01 T00311046  RH  057%=      5-min Rain = 0
KANS 011414Z 05006KT 03/M05 A303 RMK A01 T00311046  RH  057%=      5-min Rain = 0
KANS 011415Z 04008KT 03/M05 A303 RMK A01 T00321045  RH  057%=      5-min Rain = 0
KANS 011416Z 04008KT 03/M05 A303 RMK A01 T00321047  RH  056%=      5-min Rain = 0
KANS 011417Z 03008KT 03/M05 A303 RMK A01 T00331049  RH  055%=      5-min Rain = 0
KANS 011418Z 04009KT 03/M05 A303 RMK A01 T00331050  RH  055%=      5-min Rain = 0
KANS 011419Z 03009KT 03/M05 A303 RMK A01 T00331051  RH  054%=      5-min Rain = 0
KANS 011420Z 04011KT 03/M05 A303 RMK A01 T00331052  RH  054%=      5-min Rain = 0
KANS 011421Z 04009KT 03/M05 A303 RMK A01 T00331053  RH  053%=      5-min Rain = 0
KANS 011422Z 04009KT 03/M05 A303 RMK A01 T00331052  RH  054%=      5-min Rain = 0
KANS 011423Z 04008KT 03/M05 A3031 RMK A01 T00331050  RH  054%=      5-min Rain = 0
KANS 011424Z 04007KT 03/M05 A3031 RMK A01 T00341050  RH  054%=      5-min Rain = 0
KANS 011425Z 05006KT 03/M05 A3031 RMK A01 T00341050  RH  054%=      5-min Rain = 0
KANS 011426Z 04006KT 03/M05 A3031 RMK A01 T00341049  RH  054%=      5-min Rain = 0
KANS 011427Z 04006KT 03/M05 A3031 RMK A01 T00341050  RH  054%=      5-min Rain = 0
KANS 011428Z 05005KT 03/M05 A3031 RMK A01 T00341049  RH  054%=      5-min Rain = 0
KANS 011429Z 05007KT 03/M05 A3031 RMK A01 T00341052  RH  054%=      5-min Rain = 0
KANS 011430Z 06007KT 03/M05 A3032 RMK A01 T00341053  RH  053%=      5-min Rain = 0
KANS 011431Z 06005KT 03/M05 A3032 RMK A01 T00341052  RH  054%=      5-min Rain = 0
KANS 011432Z 07005KT 03/M05 A3032 RMK A01 T00331051  RH  054%=      5-min Rain = 0
KANS 011433Z 07005KT 03/M05 A3032 RMK A01 T00331049  RH  055%=      5-min Rain = 0
KANS 011434Z 07005KT 03/M05 A3032 RMK A01 T00331046  RH  056%=      5-min Rain = 0
KANS 011435Z 07004KT 03/M05 A3032 RMK A01 T00331046  RH  056%=      5-min Rain = 0
KANS 011436Z 06005KT 03/M04 A3032 RMK A01 T00331044  RH  057%=      5-min Rain = 0
KANS 011437Z 05004KT 03/M05 A3032 RMK A01 T00331046  RH  056%=      5-min Rain = 0
KANS 011438Z 06005KT 03/M05 A3032 RMK A01 T00331046  RH  056%=      5-min Rain = 0
KANS 011439Z 05005KT 03/M05 A3032 RMK A01 T00331045  RH  057%=      5-min Rain = 0
KANS 011440Z 06006KT 03/M05 A3032 RMK A01 T00331046  RH  056%=      5-min Rain = 0
KANS 011441Z 07007KT 03/M05 A3032 RMK A01 T00331048  RH  055%=      5-min Rain = 0
KANS 011442Z 05006KT 03/M05 A3032 RMK A01 T00331049  RH  055%=      5-min Rain = 0
KANS 011443Z 06007KT 03/M05 A3032 RMK A01 T00331048  RH  056%=      5-min Rain = 0
KANS 011444Z 05006KT 03/M05 A3032 RMK A01 T00331047  RH  056%=      5-min Rain = 0
KANS 011445Z 05006KT 03/M05 A3032 RMK A01 T00331046  RH  056%=      5-min Rain = 0
KANS 011446Z 05005KT 03/M05 A3032 RMK A01 T00331046  RH  056%=      5-min Rain = 0
KANS 011447Z 05005KT 03/M05 A3032 RMK A01 T00331045  RH  056%=      5-min Rain = 0
KANS 011448Z 05004KT 03/M04 A3032 RMK A01 T00341044  RH  057%=      5-min Rain = 0
KANS 011449Z 06005KT 04/M04 A3033 RMK A01 T00351044  RH  056%=      5-min Rain = 0
KANS 011450Z 06006KT 04/M05 A3033 RMK A01 T00351047  RH  055%=      5-min Rain = 0
KANS 011451Z 06005KT 04/M05 A3033 RMK A01 T00351050  RH  054%=      5-min Rain = 0
KANS 011452Z 05004KT 04/M05 A3033 RMK A01 T00351049  RH  054%=      5-min Rain = 0
KANS 011453Z 06005KT 04/M05 A3034 RMK A01 T00361046  RH  055%=      5-min Rain = 0
KANS 011454Z 09005KT 04/M05 A3034 RMK A01 T00361048  RH  054%=      5-min Rain = 0
KANS 011455Z 13007KT 04/M04 A3034 RMK A01 T00371044  RH  056%=      5-min Rain = 0
KANS 011456Z 12007KT 04/M03 A3034 RMK A01 T00351034  RH  061%=      5-min Rain = 0
KANS 011457Z 13006KT 03/M03 A3034 RMK A01 T00321029  RH  064%=      5-min Rain = 0
KANS 011458Z 12009KT 03/M03 A3034 RMK A01 T00291028  RH  066%=      5-min Rain = 0
KANS 011459Z 13008KT 03/M03 A3035 RMK A01 T00271028  RH  067%=      5-min Rain = 0
KANS 011500Z 12007KT 03/M03 A3035 RMK A01 T00261027  RH  068%=      5-min Rain = 0
KANS 011501Z 12007KT 03/M03 A3035 RMK A01 T00261026  RH  069%=      5-min Rain = 0
KANS 011502Z 12006KT 03/M03 A3035 RMK A01 T00251026  RH  069%=      5-min Rain = 0
KANS 011503Z 13007KT 03/M03 A3035 RMK A01 T00251026  RH  069%=      5-min Rain = 0
KANS 011504Z 12007KT 03/M03 A3035 RMK A01 T00251027  RH  069%=      5-min Rain = 0
KANS 011505Z 11008KT 02/M03 A3035 RMK A01 T00241027  RH  069%=      5-min Rain = 0
KANS 011506Z 12007KT 02/M03 A3035 RMK A01 T00241026  RH  069%=      5-min Rain = 0
KANS 011507Z 13007KT 02/M03 A3035 RMK A01 T00241026  RH  070%=      5-min Rain = 0
KANS 011508Z 12008KT 02/M03 A3035 RMK A01 T00241026  RH  069%=      5-min Rain = 0
KANS 011509Z 13007KT 02/M03 A3035 RMK A01 T00241025  RH  070%=      5-min Rain = 0
KANS 011510Z 12007KT 02/M03 A3035 RMK A01 T00241025  RH  070%=      5-min Rain = 0
KANS 011511Z 12006KT 02/M02 A3035 RMK A01 T00241024  RH  071%=      5-min Rain = 0
KANS 011512Z 13005KT 02/M02 A3035 RMK A01 T00241024  RH  071%=      5-min Rain = 0
KANS 011513Z 13005KT 02/M02 A3035 RMK A01 T00241023  RH  071%=      5-min Rain = 0
KANS 011514Z 12005KT 02/M02 A3035 RMK A01 T00241022  RH  071%=      5-min Rain = 0
KANS 011515Z 11006KT 02/M02 A3035 RMK A01 T00241022  RH  071%=      5-min Rain = 0
KANS 011516Z 10008KT 03/M02 A3035 RMK A01 T00251023  RH  071%=      5-min Rain = 0
KANS 011517Z 10007KT 02/M02 A3035 RMK A01 T00241024  RH  070%=      5-min Rain = 0
KANS 011518Z 10005KT 02/M02 A3036 RMK A01 T00241023  RH  071%=      5-min Rain = 0
KANS 011519Z 11007KT 02/M02 A3036 RMK A01 T00241022  RH  072%=      5-min Rain = 0
KANS 011520Z 11007KT 02/M02 A3036 RMK A01 T00241023  RH  071%=      5-min Rain = 0
KANS 011521Z 12006KT 02/M02 A3036 RMK A01 T00241022  RH  072%=      5-min Rain = 0
KANS 011522Z 11006KT 02/M02 A3036 RMK A01 T00241022  RH  072%=      5-min Rain = 0
KANS 011523Z 12009KT 02/M02 A3036 RMK A01 T00241022  RH  071%=      5-min Rain = 0
KANS 011524Z 13007KT 02/M02 A3036 RMK A01 T00231024  RH  071%=      5-min Rain = 0
KANS 011525Z 13007KT 02/M02 A3036 RMK A01 T00221022  RH  072%=      5-min Rain = 0
KANS 011526Z 13008KT 02/M02 A3036 RMK A01 T00221022  RH  073%=      5-min Rain = 0
KANS 011527Z 12009KT 02/M02 A3037 RMK A01 T00211022  RH  073%=      5-min Rain = 0
KANS 011528Z 12006KT 02/M03 A3037 RMK A01 T00201028  RH  071%=      5-min Rain = 0
KANS 011529Z 12005G10KT 02/M02 A3037 RMK A01 T00201024  RH  073%=      5-min Rain = 0
KANS 011530Z 12010KT 02/M02 A3037 RMK A01 T00201022  RH  074%=      5-min Rain = 0
KANS 011531Z 12008KT 02/M02 A3037 RMK A01 T00181021  RH  075%=      5-min Rain = 0
KANS 011532Z 10008KT 02/M02 A3036 RMK A01 T00171020  RH  076%=      5-min Rain = 0
KANS 011533Z 11010KT 02/M02 A3036 RMK A01 T00161022  RH  076%=      5-min Rain = 0
KANS 011534Z 10008KT 02/M02 A3037 RMK A01 T00161023  RH  075%=      5-min Rain = 0
KANS 011535Z 11011KT 02/M02 A3037 RMK A01 T00161022  RH  075%=      5-min Rain = 0
KANS 011536Z 11010KT 02/M02 A3037 RMK A01 T00171022  RH  076%=      5-min Rain = 0
KANS 011537Z 11010KT 02/M02 A3037 RMK A01 T00171022  RH  076%=      5-min Rain = 0
KANS 011538Z 11010KT 02/M02 A3037 RMK A01 T00171021  RH  076%=      5-min Rain = 0
KANS 011539Z 11009KT 02/M02 A3037 RMK A01 T00171021  RH  076%=      5-min Rain = 0
KANS 011540Z 11009KT 02/M02 A3037 RMK A01 T00161020  RH  076%=      5-min Rain = 0
KANS 011541Z 11007KT 02/M02 A3037 RMK A01 T00161020  RH  077%=      5-min Rain = 0
KANS 011542Z 11007KT 02/M02 A3037 RMK A01 T00161019  RH  078%=      5-min Rain = 0
KANS 011543Z 10004KT 02/M02 A3037 RMK A01 T00161020  RH  077%=      5-min Rain = 0
KANS 011544Z 09006KT 02/M02 A3037 RMK A01 T00171021  RH  076%=      5-min Rain = 0
KANS 011545Z 08007KT 02/M02 A3037 RMK A01 T00181023  RH  074%=      5-min Rain = 0
KANS 011546Z 09008KT 02/M02 A3037 RMK A01 T00201024  RH  073%=      5-min Rain = 0
KANS 011547Z 08007KT 02/M03 A3037 RMK A01 T00211026  RH  071%=      5-min Rain = 0
KANS 011548Z 07007KT 02/M03 A3037 RMK A01 T00221026  RH  071%=      5-min Rain = 0
KANS 011549Z 09007KT 02/M03 A3037 RMK A01 T00231026  RH  070%=      5-min Rain = 0
KANS 011550Z 08006KT 02/M02 A3037 RMK A01 T00231024  RH  071%=      5-min Rain = 0
KANS 011551Z 08007KT 02/M02 A3037 RMK A01 T00241022  RH  072%=      5-min Rain = 0
KANS 011552Z 08007KT 02/M02 A3037 RMK A01 T00231021  RH  073%=      5-min Rain = 0
KANS 011553Z 09007KT 02/M02 A3037 RMK A01 T00221021  RH  073%=      5-min Rain = 0
KANS 011554Z 09008KT 02/M02 A3037 RMK A01 T00211023  RH  073%=      5-min Rain = 0
KANS 011555Z 09007KT 02/M02 A3037 RMK A01 T00211024  RH  072%=      5-min Rain = 0
KANS 011556Z 09006KT 02/M02 A3037 RMK A01 T00201023  RH  073%=      5-min Rain = 0
KANS 011557Z 07005KT 02/M02 A3037 RMK A01 T00201022  RH  074%=      5-min Rain = 0
KANS 011558Z 08005KT 02/M02 A3037 RMK A01 T00201021  RH  075%=      5-min Rain = 0
KANS 011559Z 07004KT 02/M02 A3037 RMK A01 T00211020  RH  074%=      5-min Rain = 0
KANS 011600Z 07004KT 02/M02 A3037 RMK A01 T00231022  RH  073%=      5-min Rain = 0
KANS 011601Z 06005KT 02/M03 A3037 RMK A01 T00241025  RH  070%=      5-min Rain = 0
KANS 011602Z 05004KT 03/M03 A3037 RMK A01 T00251027  RH  069%=      5-min Rain = 0
KANS 011603Z 08005KT 03/M03 A3038 RMK A01 T00251027  RH  069%=      5-min Rain = 0
KANS 011604Z 07004KT 03/M03 A3038 RMK A01 T00251027  RH  068%=      5-min Rain = 0
KANS 011605Z 07004KT 03/M03 A3038 RMK A01 T00251025  RH  069%=      5-min Rain = 0
KANS 011606Z 06004KT 03/M03 A3038 RMK A01 T00251026  RH  069%=      5-min Rain = 0
KANS 011607Z 06003KT 03/M03 A3038 RMK A01 T00261027  RH  068%=      5-min Rain = 0
KANS 011608Z 05004KT 03/M03 A3038 RMK A01 T00261027  RH  068%=      5-min Rain = 0
KANS 011609Z 06003KT 03/M03 A3038 RMK A01 T00271030  RH  066%=      5-min Rain = 0
KANS 011610Z 07004KT 03/M03 A3038 RMK A01 T00271033  RH  065%=      5-min Rain = 0
KANS 011611Z 07004KT 03/M03 A3038 RMK A01 T00271031  RH  065%=      5-min Rain = 0
KANS 011612Z 06004KT 03/M03 A3038 RMK A01 T00281029  RH  066%=      5-min Rain = 0
KANS 011613Z 05005KT 03/M03 A3038 RMK A01 T00291029  RH  066%=      5-min Rain = 0
KANS 011614Z 03004KT 03/M03 A3038 RMK A01 T00291031  RH  064%=      5-min Rain = 0
KANS 011615Z 04002KT 03/M03 A3038 RMK A01 T00291032  RH  064%=      5-min Rain = 0
KANS 011616Z 04002KT 03/M03 A3038 RMK A01 T00291031  RH  064%=      5-min Rain = 0
KANS 011617Z 18002KT 03/M02 A3038 RMK A01 T00301020  RH  070%=      5-min Rain = 0
KANS 011618Z 16002KT 03/M01 A3039 RMK A01 T00291012  RH  075%=      5-min Rain = 0
KANS 011619Z 15003KT 03/M01 A3039 RMK A01 T00271012  RH  075%=      5-min Rain = 0
KANS 011620Z 14003KT 03/M01 A3039 RMK A01 T00261013  RH  076%=      5-min Rain = 0
KANS 011621Z 15003KT 03/M01 A3039 RMK A01 T00251013  RH  076%=      5-min Rain = 0
KANS 011622Z 15002KT 02/M01 A3039 RMK A01 T00241012  RH  077%=      5-min Rain = 0
KANS 011623Z 08003KT 02/M01 A3039 RMK A01 T00231012  RH  078%=      5-min Rain = 0
KANS 011624Z 04004KT 02/M02 A3039 RMK A01 T00231016  RH  075%=      5-min Rain = 0
KANS 011625Z 04003KT 03/M02 A3039 RMK A01 T00251021  RH  072%=      5-min Rain = 0
KANS 011626Z 05003KT 03/M03 A3039 RMK A01 T00271026  RH  068%=      5-min Rain = 0
KANS 011627Z 07007KT 03/M03 A3038 RMK A01 T00291029  RH  066%=      5-min Rain = 0
KANS 011628Z 06009KT 03/M03 A3038 RMK A01 T00301032  RH  064%=      5-min Rain = 0
KANS 011629Z 05009KT 03/M03 A3039 RMK A01 T00311034  RH  063%=      5-min Rain = 0
KANS 011630Z 05009KT 03/M03 A3039 RMK A01 T00311032  RH  063%=      5-min Rain = 0
KANS 011631Z 05009KT 03/M03 A3039 RMK A01 T00301032  RH  064%=      5-min Rain = 0
KANS 011632Z 06008KT 03/M03 A3039 RMK A01 T00291033  RH  064%=      5-min Rain = 0
KANS 011633Z 07008KT 03/M03 A3039 RMK A01 T00281030  RH  066%=      5-min Rain = 0
KANS 011634Z 06008KT 03/M03 A3039 RMK A01 T00291028  RH  066%=      5-min Rain = 0
KANS 011635Z 05008KT 03/M03 A3039 RMK A01 T00291028  RH  066%=      5-min Rain = 0
KANS 011636Z 05007KT 03/M03 A3039 RMK A01 T00301027  RH  066%=      5-min Rain = 0
KANS 011637Z 05008KT 03/M03 A3039 RMK A01 T00301030  RH  065%=      5-min Rain = 0
KANS 011638Z 05005KT 03/M03 A3039 RMK A01 T00301028  RH  066%=      5-min Rain = 0
KANS 011639Z 06007KT 03/M03 A3038 RMK A01 T00311026  RH  066%=      5-min Rain = 0
KANS 011640Z 05008KT 03/M03 A3039 RMK A01 T00321027  RH  065%=      5-min Rain = 0
KANS 011641Z 05008KT 03/M03 A3039 RMK A01 T00321030  RH  064%=      5-min Rain = 0
KANS 011642Z 07007KT 03/M03 A3039 RMK A01 T00321029  RH  064%=      5-min Rain = 0
KANS 011643Z 07006KT 03/M03 A3039 RMK A01 T00321027  RH  065%=      5-min Rain = 0
KANS 011644Z 06007KT 03/M03 A3039 RMK A01 T00311029  RH  065%=      5-min Rain = 0
KANS 011645Z 06005KT 03/M03 A3039 RMK A01 T00311029  RH  065%=      5-min Rain = 0
KANS 011646Z 07005KT 03/M03 A3039 RMK A01 T00311029  RH  064%=      5-min Rain = 0
KANS 011647Z 06006KT 03/M03 A3039 RMK A01 T00311030  RH  064%=      5-min Rain = 0
KANS 011648Z 05007KT 03/M04 A3039 RMK A01 T00321035  RH  062%=      5-min Rain = 0
KANS 011649Z 06008KT 03/M04 A3039 RMK A01 T00321036  RH  061%=      5-min Rain = 0
KANS 011650Z 05007KT 03/M04 A3039 RMK A01 T00321036  RH  061%=      5-min Rain = 0
KANS 011651Z 05007KT 03/M03 A3039 RMK A01 T00321034  RH  062%=      5-min Rain = 0
KANS 011652Z 06008KT 03/M03 A3039 RMK A01 T00331034  RH  062%=      5-min Rain = 0
KANS 011653Z 06007KT 03/M03 A3039 RMK A01 T00331033  RH  062%=      5-min Rain = 0
KANS 011654Z 07007KT 03/M03 A3039 RMK A01 T00331031  RH  063%=      5-min Rain = 0
KANS 011655Z 07007KT 03/M03 A3039 RMK A01 T00331029  RH  064%=      5-min Rain = 0
KANS 011656Z 08006KT 03/M03 A3039 RMK A01 T00321029  RH  064%=      5-min Rain = 0
KANS 011657Z 08006KT 03/M03 A3039 RMK A01 T00321027  RH  066%=      5-min Rain = 0
KANS 011658Z 08006KT 03/M03 A3039 RMK A01 T00321029  RH  064%=      5-min Rain = 0
KANS 011659Z 06005KT 03/M03 A3039 RMK A01 T00311031  RH  064%=      5-min Rain = 0
KANS 011700Z 06005KT 03/M03 A3039 RMK A01 T00321030  RH  064%=      5-min Rain = 0
KANS 011701Z 07004KT 03/M03 A3039 RMK A01 T00321030  RH  064%=      5-min Rain = 0
KANS 011702Z 06006KT 03/M03 A3039 RMK A01 T00341028  RH  064%=      5-min Rain = 0
KANS 011703Z 06005KT 03/M03 A3039 RMK A01 T00341030  RH  063%=      5-min Rain = 0
KANS 011704Z 07004KT 03/M03 A3039 RMK A01 T00331030  RH  063%=      5-min Rain = 0
KANS 011705Z 09005KT 03/M03 A3039 RMK A01 T00341027  RH  064%=      5-min Rain = 0
KANS 011706Z 06004KT 03/M03 A3039 RMK A01 T00341030  RH  063%=      5-min Rain = 0
KANS 011707Z 09004KT 04/M03 A3039 RMK A01 T00351027  RH  064%=      5-min Rain = 0
KANS 011708Z 10006KT 04/M03 A3039 RMK A01 T00361026  RH  064%=      5-min Rain = 0
KANS 011709Z 09008KT 04/M02 A3039 RMK A01 T00361023  RH  065%=      5-min Rain = 0
KANS 011710Z 10006KT 04/M02 A3039 RMK A01 T00361021  RH  066%=      5-min Rain = 0
KANS 011711Z 11007KT 04/M02 A3039 RMK A01 T00361022  RH  066%=      5-min Rain = 0
KANS 011712Z 10007KT 04/M02 A3039 RMK A01 T00351023  RH  066%=      5-min Rain = 0
KANS 011713Z 11005KT 04/M02 A3039 RMK A01 T00351023  RH  066%=      5-min Rain = 0
KANS 011714Z 11007KT 04/M03 A3039 RMK A01 T00351026  RH  064%=      5-min Rain = 0
KANS 011715Z 11006KT 04/M03 A3039 RMK A01 T00351025  RH  065%=      5-min Rain = 0
KANS 011716Z 11006KT 03/M03 A3039 RMK A01 T00341025  RH  065%=      5-min Rain = 0
KANS 011717Z 11006KT 03/M02 A3039 RMK A01 T00341022  RH  067%=      5-min Rain = 0
KANS 011718Z 10007KT 03/M02 A3039 RMK A01 T00341021  RH  067%=      5-min Rain = 0
KANS 011719Z 10007KT 03/M02 A3039 RMK A01 T00341020  RH  068%=      5-min Rain = 0
KANS 011720Z 11008KT 03/M02 A3039 RMK A01 T00341018  RH  069%=      5-min Rain = 0
KANS 011721Z 11006KT 03/M02 A3039 RMK A01 T00321018  RH  070%=      5-min Rain = 0
KANS 011722Z 11006KT 03/M02 A3039 RMK A01 T00321016  RH  071%=      5-min Rain = 0
KANS 011723Z 10006KT 03/M02 A3039 RMK A01 T00321016  RH  071%=      5-min Rain = 0
KANS 011724Z 10005KT 03/M02 A3039 RMK A01 T00341015  RH  070%=      5-min Rain = 0
KANS 011725Z 10008KT 04/M01 A3039 RMK A01 T00351014  RH  070%=      5-min Rain = 0
KANS 011726Z 11007KT 03/M02 A3039 RMK A01 T00341016  RH  070%=      5-min Rain = 0
KANS 011727Z 11008KT 03/M02 A3039 RMK A01 T00321015  RH  071%=      5-min Rain = 0
KANS 011728Z 11006KT 03/M01 A3039 RMK A01 T00311013  RH  073%=      5-min Rain = 0
KANS 011729Z 09006KT 03/M01 A3039 RMK A01 T00311013  RH  073%=      5-min Rain = 0
KANS 011730Z 09007KT 03/M02 A3039 RMK A01 T00321015  RH  071%=      5-min Rain = 0
KANS 011731Z 09007KT 03/M02 A3039 RMK A01 T00321015  RH  071%=      5-min Rain = 0
KANS 011732Z 09005KT 03/M02 A3039 RMK A01 T00321015  RH  071%=      5-min Rain = 0
KANS 011733Z 09007KT 03/M02 A304 RMK A01 T00331016  RH  070%=      5-min Rain = 0
KANS 011734Z 08008KT 03/M02 A304 RMK A01 T00331018  RH  069%=      5-min Rain = 0
KANS 011735Z 08007KT 03/M02 A304 RMK A01 T00321017  RH  070%=      5-min Rain = 0
KANS 011736Z 09009KT 03/M02 A304 RMK A01 T00331017  RH  070%=      5-min Rain = 0
KANS 011737Z 08006KT 03/M02 A304 RMK A01 T00331017  RH  070%=      5-min Rain = 0
KANS 011738Z 09006KT 03/M02 A304 RMK A01 T00321016  RH  071%=      5-min Rain = 0
KANS 011739Z 11007KT 03/M01 A304 RMK A01 T00311014  RH  072%=      5-min Rain = 0
KANS 011740Z 11006KT 03/M01 A304 RMK A01 T00291013  RH  074%=      5-min Rain = 0
KANS 011741Z 08007KT 03/M01 A304 RMK A01 T00281012  RH  075%=      5-min Rain = 0
KANS 011742Z 09007KT 03/M01 A304 RMK A01 T00281013  RH  074%=      5-min Rain = 0
KANS 011743Z 08009KT 03/M02 A304 RMK A01 T00291015  RH  073%=      5-min Rain = 0
KANS 011744Z 08008KT 03/M02 A304 RMK A01 T00291018  RH  071%=      5-min Rain = 0
KANS 011745Z 08007KT 03/M02 A304 RMK A01 T00291019  RH  070%=      5-min Rain = 0
KANS 011746Z 08007KT 03/M02 A304 RMK A01 T00291019  RH  070%=      5-min Rain = 0
KANS 011747Z 08007KT 03/M02 A304 RMK A01 T00281019  RH  071%=      5-min Rain = 0
KANS 011748Z 08006KT 03/M02 A3041 RMK A01 T00281016  RH  072%=      5-min Rain = 0
KANS 011749Z 07006KT 03/M02 A3041 RMK A01 T00301015  RH  072%=      5-min Rain = 0
KANS 011750Z 09006KT 03/M02 A3041 RMK A01 T00301015  RH  072%=      5-min Rain = 0
KANS 011751Z 09006KT 03/M01 A3041 RMK A01 T00291014  RH  074%=      5-min Rain = 0
KANS 011752Z 09006KT 03/M02 A3041 RMK A01 T00281015  RH  074%=      5-min Rain = 0
KANS 011753Z 09006KT 03/M01 A3041 RMK A01 T00271013  RH  075%=      5-min Rain = 0
KANS 011754Z 09007KT 03/M02 A3041 RMK A01 T00261015  RH  074%=      5-min Rain = 0
KANS 011755Z 10006KT 03/M01 A3041 RMK A01 T00251014  RH  075%=      5-min Rain = 0
KANS 011756Z 11005KT 03/M01 A3041 RMK A01 T00251012  RH  076%=      5-min Rain = 0
KANS 011757Z 09004KT 03/M01 A3041 RMK A01 T00261013  RH  076%=      5-min Rain = 0
KANS 011758Z 08004KT 03/M01 A3041 RMK A01 T00261013  RH  076%=      5-min Rain = 0
KANS 011759Z 08005KT 03/M01 A3041 RMK A01 T00261013  RH  076%=      5-min Rain = 0
KANS 011800Z 10005KT 03/M01 A3041 RMK A01 T00251012  RH  077%=      5-min Rain = 0
KANS 011801Z 10005KT 03/M01 A3041 RMK A01 T00251008  RH  079%=      5-min Rain = 0
KANS 011802Z 09006KT 03/M01 A3041 RMK A01 T00261008  RH  079%=      5-min Rain = 0
KANS 011803Z 10005KT 03/M01 A3041 RMK A01 T00261007  RH  079%=      5-min Rain = 0
KANS 011804Z 12003KT 03/M01 A3041 RMK A01 T00251009  RH  079%=      5-min Rain = 0
KANS 011805Z 14003KT 02/M01 A3041 RMK A01 T00231008  RH  080%=      5-min Rain = 0
KANS 011806Z 12003KT 02/M01 A3041 RMK A01 T00231007  RH  081%=      5-min Rain = 0
KANS 011807Z 15003KT 02/M01 A3041 RMK A01 T00231007  RH  081%=      5-min Rain = 0
KANS 011808Z 14004KT 02/M01 A3041 RMK A01 T00231005  RH  082%=      5-min Rain = 0
KANS 011809Z 13004KT 02/M01 A3041 RMK A01 T00231005  RH  082%=      5-min Rain = 0
KANS 011810Z 12004KT 02/M01 A3041 RMK A01 T00231006  RH  081%=      5-min Rain = 0
KANS 011811Z 11003KT 02/M01 A3041 RMK A01 T00221008  RH  081%=      5-min Rain = 0
KANS 011812Z 14002KT 02/M01 A3041 RMK A01 T00211008  RH  081%=      5-min Rain = 0
KANS 011813Z 15003KT 02/M01 A3041 RMK A01 T00211007  RH  082%=      5-min Rain = 0
KANS 011814Z 17002KT 02/M01 A3041 RMK A01 T00211006  RH  082%=      5-min Rain = 0
KANS 011815Z 16002KT 02/M01 A3041 RMK A01 T00201008  RH  082%=      5-min Rain = 0
KANS 011816Z 10004KT 02/M01 A3041 RMK A01 T00211005  RH  083%=      5-min Rain = 0
KANS 011817Z 10006KT 02/M00 A3041 RMK A01 T00211004  RH  083%=      5-min Rain = 0
KANS 011818Z 03009KT 02/M01 A3041 RMK A01 T00231005  RH  082%=      5-min Rain = 0
KANS 011819Z 04012G18KT 02/M01 A3041 RMK A01 T00231010  RH  079%=      5-min Rain = 0
KANS 011820Z 07008KT 02/M01 A3041 RMK A01 T00231009  RH  079%=      5-min Rain = 0
KANS 011821Z 05007KT 02/M01 A3041 RMK A01 T00231011  RH  078%=      5-min Rain = 0
KANS 011822Z 04008KT 02/M01 A3041 RMK A01 T00221012  RH  078%=      5-min Rain = 0
KANS 011823Z 03009KT 02/M02 A3042 RMK A01 T00201016  RH  077%=      5-min Rain = 0
KANS 011824Z 02011KT 02/M02 A3042 RMK A01 T00191016  RH  078%=      5-min Rain = 0
KANS 011825Z 02010KT 02/M02 A3042 RMK A01 T00171015  RH  079%=      5-min Rain = 0
KANS 011826Z 01012KT 02/M01 A3042 RMK A01 T00161013  RH  081%=      5-min Rain = 0
KANS 011827Z 00011KT 01/M01 A3042 RMK A01 T00141007  RH  085%=      5-min Rain = 0
KANS 011828Z 36011KT 01/M00 A3042 RMK A01 T00131004  RH  089%=      5-min Rain = 0
KANS 011829Z 36012KT 01/M00 A3042 RMK A01 T00111004  RH  090%=      5-min Rain = 0
KANS 011830Z 35011KT 01/M00 A3042 RMK A01 T00091003  RH  091%=      5-min Rain = 0
KANS 011831Z 35010KT 01/M00 A3042 RMK A01 T00081003  RH  092%=      5-min Rain = 0
KANS 011832Z 35011KT 01/M01 A3042 RMK A01 T00061005  RH  092%=      5-min Rain = 0
KANS 011833Z 35011KT 01/M01 A3042 RMK A01 T00051005  RH  093%=      5-min Rain = 0
KANS 011834Z 35011KT 00/M01 A3042 RMK A01 T00041005  RH  093%=      5-min Rain = 0
KANS 011835Z 35010KT 00/M01 A3042 RMK A01 T00041005  RH  094%=      5-min Rain = 0
KANS 011836Z 35010KT 00/M01 A3042 RMK A01 T00031005  RH  094%=      5-min Rain = 0
KANS 011837Z 35010KT 00/M01 A3042 RMK A01 T00031005  RH  094%=      5-min Rain = 0
KANS 011838Z 35009KT 00/M01 A3042 RMK A01 T00021006  RH  095%=      5-min Rain = 0
KANS 011839Z 35009KT 00/M01 A3042 RMK A01 T00021006  RH  095%=      5-min Rain = 0
KANS 011840Z 35009KT 00/M01 A3042 RMK A01 T00011006  RH  095%=      5-min Rain = 0
KANS 011841Z 36008KT 00/M01 A3042 RMK A01 T00011005  RH  095%=      5-min Rain = 0
KANS 011842Z 36006KT 00/M01 A3042 RMK A01 T00011005  RH  096%=      5-min Rain = 0
KANS 011843Z 00008KT 00/M00 A3042 RMK A01 T00011004  RH  096%=      5-min Rain = 0
KANS 011844Z 00008KT 00/M00 A3042 RMK A01 T00011004  RH  096%=      5-min Rain = 0
KANS 011845Z 00008KT 00/M00 A3042 RMK A01 T00011004  RH  096%=      5-min Rain = 0
KANS 011846Z 01008KT 00/M00 A3042 RMK A01 T00011004  RH  097%=      5-min Rain = 0
KANS 011847Z 00007KT 00/M00 A3042 RMK A01 T00011004  RH  097%=      5-min Rain = 0
KANS 011848Z 00006KT 00/M00 A3042 RMK A01 T00011004  RH  097%=      5-min Rain = 0
KANS 011849Z 01005KT 00/M00 A3042 RMK A01 T00011003  RH  097%=      5-min Rain = 0
KANS 011850Z 01006KT 00/M00 A3042 RMK A01 T00011003  RH  097%=      5-min Rain = 0
KANS 011851Z 01006KT 00/M00 A3042 RMK A01 T00011003  RH  097%=      5-min Rain = 0
KANS 011852Z 01006KT 00/M00 A3042 RMK A01 T00011003  RH  097%=      5-min Rain = 0
KANS 011853Z 02006KT 00/M00 A3042 RMK A01 T00011003  RH  097%=      5-min Rain = 0
KANS 011854Z 02005KT 00/M00 A3042 RMK A01 T00011003  RH  097%=      5-min Rain = 0
KANS 011855Z 02005KT 00/M00 A3042 RMK A01 T00011003  RH  097%=      5-min Rain = 0
KANS 011856Z 03005KT 00/M00 A3042 RMK A01 T00011002  RH  098%=      5-min Rain = 0
KANS 011857Z 03005KT 00/M00 A3042 RMK A01 T00011002  RH  098%=      5-min Rain = 0
KANS 011858Z 03005KT 00/M00 A3042 RMK A01 T00011002  RH  098%=      5-min Rain = 0
KANS 011859Z 03006KT 00/M00 A3042 RMK A01 T00021002  RH  098%=      5-min Rain = 0
KANS 011900Z 04004KT 00/M00 A3042 RMK A01 T00021002  RH  098%=      5-min Rain = 0
KANS 011901Z 04005KT 00/M00 A3042 RMK A01 T00021002  RH  098%=      5-min Rain = 0
KANS 011902Z 04005KT 00/M00 A3042 RMK A01 T00021002  RH  098%=      5-min Rain = 0
KANS 011903Z 05004KT 00/M00 A3042 RMK A01 T00021002  RH  098%=      5-min Rain = 0
KANS 011904Z 04005KT 00/M00 A3042 RMK A01 T00021002  RH  098%=      5-min Rain = 0
KANS 011905Z 04005KT 00/M00 A3042 RMK A01 T00021002  RH  098%=      5-min Rain = 0
KANS 011906Z 04004KT 00/M00 A3042 RMK A01 T00021002  RH  098%=      5-min Rain = 0
KANS 011907Z 05003KT 00/M00 A3042 RMK A01 T00021002  RH  098%=      5-min Rain = 0
KANS 011908Z 06004KT 00/M00 A3042 RMK A01 T00021001  RH  098%=      5-min Rain = 0
KANS 011909Z 05004KT 00/M00 A3042 RMK A01 T00021001  RH  098%=      5-min Rain = 0
KANS 011910Z 05005KT 00/M00 A3042 RMK A01 T00021001  RH  098%=      5-min Rain = 0
KANS 011911Z 06005KT 00/M00 A3042 RMK A01 T00021001  RH  098%=      5-min Rain = 0
KANS 011912Z 05005KT 00/M00 A3042 RMK A01 T00021001  RH  098%=      5-min Rain = 0
KANS 011913Z 05005KT 00/M00 A3042 RMK A01 T00021001  RH  098%=      5-min Rain = 0
KANS 011914Z 05004KT 00/M00 A3042 RMK A01 T00021001  RH  098%=      5-min Rain = 0
KANS 011915Z 05004KT 00/M00 A3042 RMK A01 T00021001  RH  098%=      5-min Rain = 0
KANS 011916Z 06005KT 00/00 A3042 RMK A01 T000300-0  RH  098%=      5-min Rain = 0
KANS 011917Z 05004KT 00/00 A3042 RMK A01 T000300-0  RH  098%=      5-min Rain = 0
KANS 011918Z 06004KT 00/00 A3042 RMK A01 T000300-0  RH  098%=      5-min Rain = 0
KANS 011919Z 07004KT 00/00 A3042 RMK A01 T000300-0  RH  098%=      5-min Rain = 0
KANS 011920Z 06004KT 00/00 A3042 RMK A01 T000300-0  RH  098%=      5-min Rain = 0
KANS 011921Z 07004KT 00/00 A3042 RMK A01 T00030000  RH  098%=      5-min Rain = 0
KANS 011922Z 06004KT 00/00 A3042 RMK A01 T00030000  RH  098%=      5-min Rain = 0
KANS 011923Z 05003KT 00/00 A3042 RMK A01 T00030000  RH  098%=      5-min Rain = 0
KANS 011924Z 04004KT 00/00 A3042 RMK A01 T00030000  RH  098%=      5-min Rain = 0
KANS 011925Z 04003KT 00/00 A3042 RMK A01 T00040001  RH  098%=      5-min Rain = 0
KANS 011926Z 02003KT 00/00 A3042 RMK A01 T00040001  RH  098%=      5-min Rain = 0
KANS 011927Z 03004KT 00/00 A3042 RMK A01 T00040001  RH  098%=      5-min Rain = 0
KANS 011928Z 03004KT 00/00 A3042 RMK A01 T00040001  RH  098%=      5-min Rain = 0
KANS 011929Z 01003KT 00/00 A3042 RMK A01 T00040001  RH  098%=      5-min Rain = 0
KANS 011930Z 01004KT 00/00 A3041 RMK A01 T00040001  RH  098%=      5-min Rain = 0
KANS 011931Z 01005KT 00/00 A3041 RMK A01 T00040001  RH  098%=      5-min Rain = 0
KANS 011932Z 02004KT 00/00 A3041 RMK A01 T00040001  RH  098%=      5-min Rain = 0
KANS 011933Z 02006KT 00/00 A3041 RMK A01 T00040001  RH  098%=      5-min Rain = 0
KANS 011934Z 02006KT 00/00 A3041 RMK A01 T00040001  RH  098%=      5-min Rain = 0
KANS 011935Z 01005KT 00/00 A3041 RMK A01 T00040001  RH  098%=      5-min Rain = 0
KANS 011936Z 02005KT 00/00 A3041 RMK A01 T00040001  RH  098%=      5-min Rain = 0
KANS 011937Z 02004KT 00/00 A3041 RMK A01 T00040001  RH  098%=      5-min Rain = 0
KANS 011938Z 02005KT 00/00 A3041 RMK A01 T00040001  RH  098%=      5-min Rain = 0
KANS 011939Z 00006KT 00/00 A3041 RMK A01 T00040001  RH  098%=      5-min Rain = 0.01
KANS 011940Z 00005KT 00/00 A3041 RMK A01 T00040001  RH  098%=      5-min Rain = 0
KANS 011941Z 01005KT 00/00 A3041 RMK A01 T00040002  RH  098%=      5-min Rain = 0
KANS 011942Z 02006KT 01/00 A3041 RMK A01 T00050002  RH  098%=      5-min Rain = 0
KANS 011943Z 00005KT 01/00 A3041 RMK A01 T00060003  RH  098%=      5-min Rain = 0.01
KANS 011944Z 01005KT 01/00 A3041 RMK A01 T00060003  RH  098%=      5-min Rain = 0
KANS 011945Z 00005KT 01/00 A3041 RMK A01 T00060003  RH  098%=      5-min Rain = 0
KANS 011946Z 01005KT 01/00 A3041 RMK A01 T00070004  RH  098%=      5-min Rain = 0
KANS 011947Z 01006KT 01/01 A3041 RMK A01 T00080005  RH  098%=      5-min Rain = 0.01
KANS 011948Z 01008KT 01/01 A3041 RMK A01 T00080006  RH  098%=      5-min Rain = 0
KANS 011949Z 36006KT 01/01 A3041 RMK A01 T00080006  RH  098%=      5-min Rain = 0
KANS 011950Z 01007KT 01/01 A3041 RMK A01 T00100007  RH  098%=      5-min Rain = 0
KANS 011951Z 01006KT 01/01 A3041 RMK A01 T00100007  RH  098%=      5-min Rain = 0.01
KANS 011952Z 35007KT 01/01 A3041 RMK A01 T00100007  RH  098%=      5-min Rain = 0
KANS 011953Z 00006KT 01/01 A3041 RMK A01 T00110008  RH  098%=      5-min Rain = 0
KANS 011954Z 35006G11KT 01/01 A3041 RMK A01 T00120008  RH  098%=      5-min Rain = 0
KANS 011955Z 35010KT 01/01 A3041 RMK A01 T00130009  RH  098%=      5-min Rain = 0.01
KANS 011956Z 00007KT 01/01 A3041 RMK A01 T00120007  RH  096%=      5-min Rain = 0
KANS 011957Z 01007KT 01/01 A3041 RMK A01 T00130008  RH  096%=      5-min Rain = 0
KANS 011958Z 00005G12KT 02/01 A3041 RMK A01 T00160012  RH  097%=      5-min Rain = 0
KANS 011959Z 36013KT 02/01 A3041 RMK A01 T00170010  RH  095%=      5-min Rain = 0
KANS 012000Z 36010KT 02/00 A3041 RMK A01 T00160004  RH  092%=      5-min Rain = 0
KANS 012001Z 35011KT 02/01 A3041 RMK A01 T00160005  RH  092%=      5-min Rain = 0.01
KANS 012002Z 00008KT 02/01 A3041 RMK A01 T00170006  RH  092%=      5-min Rain = 0
KANS 012003Z 01007KT 02/01 A3041 RMK A01 T00180009  RH  094%=      5-min Rain = 0
KANS 012004Z 02011KT 02/01 A3041 RMK A01 T00200011  RH  094%=      5-min Rain = 0
KANS 012005Z 01010KT 02/01 A3041 RMK A01 T00200008  RH  092%=      5-min Rain = 0
KANS 012006Z 01012KT 02/01 A3041 RMK A01 T00190005  RH  091%=      5-min Rain = 0
KANS 012007Z 00010KT 02/00 A3041 RMK A01 T00180003  RH  090%=      5-min Rain = 0
KANS 012008Z 36012KT 02/01 A3041 RMK A01 T00180005  RH  091%=      5-min Rain = 0
KANS 012009Z 00010KT 02/01 A3041 RMK A01 T00180005  RH  091%=      5-min Rain = 0
KANS 012010Z 00010KT 02/01 A3041 RMK A01 T00190006  RH  091%=      5-min Rain = 0
KANS 012011Z 36010KT 02/01 A3041 RMK A01 T00190007  RH  091%=      5-min Rain = 0
KANS 012012Z 00011KT 02/01 A3041 RMK A01 T00190005  RH  091%=      5-min Rain = 0
KANS 012013Z 00011KT 02/00 A304 RMK A01 T00180004  RH  091%=      5-min Rain = 0
KANS 012014Z 00009KT 02/01 A304 RMK A01 T00180005  RH  091%=      5-min Rain = 0
KANS 012015Z 01009KT 02/01 A304 RMK A01 T00180005  RH  091%=      5-min Rain = 0
KANS 012016Z 00009KT 02/01 A304 RMK A01 T00190007  RH  092%=      5-min Rain = 0
KANS 012017Z 00011KT 02/01 A304 RMK A01 T00190007  RH  092%=      5-min Rain = 0
KANS 012018Z 00010KT 02/01 A304 RMK A01 T00190006  RH  091%=      5-min Rain = 0
KANS 012019Z 00009KT 02/01 A304 RMK A01 T00180005  RH  091%=      5-min Rain = 0
KANS 012020Z 36008KT 02/00 A304 RMK A01 T00180004  RH  091%=      5-min Rain = 0
KANS 012021Z 36008KT 02/01 A304 RMK A01 T00170005  RH  092%=      5-min Rain = 0
KANS 012022Z 35009KT 02/01 A304 RMK A01 T00170006  RH  092%=      5-min Rain = 0
KANS 012023Z 00008KT 02/01 A304 RMK A01 T00170007  RH  093%=      5-min Rain = 0
KANS 012024Z 36009KT 02/01 A304 RMK A01 T00180009  RH  094%=      5-min Rain = 0
KANS 012025Z 36010KT 02/01 A304 RMK A01 T00190009  RH  093%=      5-min Rain = 0
KANS 012026Z 35009KT 02/01 A304 RMK A01 T00180006  RH  092%=      5-min Rain = 0
KANS 012027Z 36009KT 02/01 A304 RMK A01 T00170006  RH  092%=      5-min Rain = 0
KANS 012028Z 35008KT 02/01 A304 RMK A01 T00170008  RH  093%=      5-min Rain = 0
KANS 012029Z 35009KT 02/01 A304 RMK A01 T00180009  RH  094%=      5-min Rain = 0
KANS 012030Z 36009KT 02/01 A304 RMK A01 T00180007  RH  093%=      5-min Rain = 0
KANS 012031Z 00010KT 02/01 A304 RMK A01 T00170007  RH  093%=      5-min Rain = 0
KANS 012032Z 36010KT 02/01 A304 RMK A01 T00180008  RH  093%=      5-min Rain = 0
KANS 012033Z 01009KT 02/01 A304 RMK A01 T00180007  RH  092%=      5-min Rain = 0
KANS 012034Z 01008KT 02/01 A304 RMK A01 T00180007  RH  092%=      5-min Rain = 0
KANS 012035Z 35010KT 02/01 A304 RMK A01 T00190010  RH  094%=      5-min Rain = 0
KANS 012036Z 01011KT 02/01 A304 RMK A01 T00190008  RH  092%=      5-min Rain = 0
KANS 012037Z 36010KT 02/01 A304 RMK A01 T00190006  RH  092%=      5-min Rain = 0
KANS 012038Z 36010KT 02/01 A304 RMK A01 T00190010  RH  094%=      5-min Rain = 0
KANS 012039Z 00011KT 02/01 A304 RMK A01 T00200011  RH  093%=      5-min Rain = 0
KANS 012040Z 00011KT 02/01 A304 RMK A01 T00190006  RH  091%=      5-min Rain = 0
KANS 012041Z 00010KT 02/01 A304 RMK A01 T00190007  RH  092%=      5-min Rain = 0
KANS 012042Z 36010KT 02/01 A304 RMK A01 T00190008  RH  092%=      5-min Rain = 0
KANS 012043Z 36010KT 02/01 A304 RMK A01 T00190007  RH  091%=      5-min Rain = 0
KANS 012044Z 35011KT 02/01 A304 RMK A01 T00190006  RH  091%=      5-min Rain = 0
KANS 012045Z 35013KT 02/01 A304 RMK A01 T00190007  RH  092%=      5-min Rain = 0
KANS 012046Z 36012KT 02/01 A304 RMK A01 T00190005  RH  090%=      5-min Rain = 0
KANS 012047Z 00012KT 02/01 A304 RMK A01 T00190005  RH  091%=      5-min Rain = 0
KANS 012048Z 36012KT 02/01 A304 RMK A01 T00190005  RH  090%=      5-min Rain = 0
KANS 012049Z 00011KT 02/00 A304 RMK A01 T00180004  RH  090%=      5-min Rain = 0
KANS 012050Z 00009KT 02/01 A304 RMK A01 T00190007  RH  092%=      5-min Rain = 0
KANS 012051Z 35011KT 02/01 A304 RMK A01 T00200011  RH  094%=      5-min Rain = 0
KANS 012052Z 35012KT 02/01 A304 RMK A01 T00210011  RH  093%=      5-min Rain = 0
KANS 012053Z 35011KT 02/01 A304 RMK A01 T00210009  RH  092%=      5-min Rain = 0
KANS 012054Z 35010KT 02/01 A304 RMK A01 T00200008  RH  091%=      5-min Rain = 0
KANS 012055Z 35010KT 02/01 A304 RMK A01 T00200009  RH  092%=      5-min Rain = 0
KANS 012056Z 35009KT 02/01 A304 RMK A01 T00200006  RH  090%=      5-min Rain = 0
KANS 012057Z 35008KT 02/01 A304 RMK A01 T00190007  RH  091%=      5-min Rain = 0
KANS 012058Z 36008KT 02/01 A304 RMK A01 T00200010  RH  093%=      5-min Rain = 0
KANS 012059Z 35009KT 02/01 A304 RMK A01 T00210011  RH  093%=      5-min Rain = 0
KANS 012100Z 35009KT 02/01 A304 RMK A01 T00210008  RH  091%=      5-min Rain = 0
KANS 012101Z 01010KT 02/01 A304 RMK A01 T00210006  RH  090%=      5-min Rain = 0
KANS 012102Z 36010KT 02/01 A304 RMK A01 T00220006  RH  089%=      5-min Rain = 0
KANS 012103Z 00010KT 02/01 A304 RMK A01 T00220007  RH  090%=      5-min Rain = 0
KANS 012104Z 01008KT 02/01 A304 RMK A01 T00220006  RH  089%=      5-min Rain = 0
KANS 012105Z 01008KT 02/01 A304 RMK A01 T00230008  RH  090%=      5-min Rain = 0
KANS 012106Z 36009KT 02/01 A304 RMK A01 T00240010  RH  091%=      5-min Rain = 0
KANS 012107Z 00008KT 02/01 A304 RMK A01 T00240010  RH  091%=      5-min Rain = 0
KANS 012108Z 01008KT 03/01 A304 RMK A01 T00250012  RH  091%=      5-min Rain = 0
KANS 012109Z 01009KT 03/01 A304 RMK A01 T00250012  RH  091%=      5-min Rain = 0
KANS 012110Z 02010KT 03/01 A304 RMK A01 T00260007  RH  088%=      5-min Rain = 0
KANS 012111Z 01009KT 03/01 A304 RMK A01 T00250005  RH  086%=      5-min Rain = 0
KANS 012112Z 01010KT 03/00 A304 RMK A01 T00250003  RH  086%=      5-min Rain = 0
KANS 012113Z 02007KT 03/01 A3039 RMK A01 T00250005  RH  087%=      5-min Rain = 0
KANS 012114Z 02008KT 03/01 A304 RMK A01 T00260010  RH  089%=      5-min Rain = 0
KANS 012115Z 02008KT 03/01 A3039 RMK A01 T00280011  RH  089%=      5-min Rain = 0
KANS 012116Z 03007KT 03/01 A3039 RMK A01 T00280008  RH  087%=      5-min Rain = 0
KANS 012117Z 02007KT 03/01 A3039 RMK A01 T00280007  RH  086%=      5-min Rain = 0
KANS 012118Z 03009KT 03/01 A3039 RMK A01 T00280008  RH  087%=      5-min Rain = 0
KANS 012119Z 03009KT 03/01 A3039 RMK A01 T00280006  RH  086%=      5-min Rain = 0
KANS 012120Z 02007KT 03/01 A3039 RMK A01 T00280009  RH  087%=      5-min Rain = 0
KANS 012121Z 01009KT 03/01 A3039 RMK A01 T00290012  RH  088%=      5-min Rain = 0
KANS 012122Z 02009KT 03/01 A3039 RMK A01 T00300010  RH  087%=      5-min Rain = 0
KANS 012123Z 03008KT 03/01 A3039 RMK A01 T00300009  RH  086%=      5-min Rain = 0
KANS 012124Z 03010KT 03/01 A304 RMK A01 T00300009  RH  086%=      5-min Rain = 0
KANS 012125Z 04008KT 03/01 A304 RMK A01 T00300007  RH  085%=      5-min Rain = 0
KANS 012126Z 03010KT 03/01 A304 RMK A01 T00300008  RH  086%=      5-min Rain = 0
KANS 012127Z 03009KT 03/01 A304 RMK A01 T00300009  RH  086%=      5-min Rain = 0
KANS 012128Z 03012KT 03/01 A304 RMK A01 T00300008  RH  086%=      5-min Rain = 0
KANS 012129Z 02011KT 03/01 A304 RMK A01 T00290007  RH  085%=      5-min Rain = 0
KANS 012130Z 03011KT 03/01 A304 RMK A01 T00290009  RH  086%=      5-min Rain = 0
KANS 012131Z 02009KT 03/01 A304 RMK A01 T00290008  RH  086%=      5-min Rain = 0
KANS 012132Z 02011KT 03/01 A304 RMK A01 T00290006  RH  085%=      5-min Rain = 0
KANS 012133Z 02009KT 03/01 A304 RMK A01 T00280007  RH  086%=      5-min Rain = 0
KANS 012134Z 02010KT 03/01 A304 RMK A01 T00280007  RH  086%=      5-min Rain = 0
KANS 012135Z 02009KT 03/01 A304 RMK A01 T00280007  RH  086%=      5-min Rain = 0
KANS 012136Z 03009KT 03/01 A304 RMK A01 T00280008  RH  087%=      5-min Rain = 0
KANS 012137Z 02008KT 03/01 A304 RMK A01 T00280010  RH  088%=      5-min Rain = 0
KANS 012138Z 02008KT 03/01 A304 RMK A01 T00280009  RH  087%=      5-min Rain = 0
KANS 012139Z 02009KT 03/01 A304 RMK A01 T00280007  RH  086%=      5-min Rain = 0
KANS 012140Z 01011KT 03/01 A304 RMK A01 T00290010  RH  087%=      5-min Rain = 0
KANS 012141Z 02010KT 03/01 A304 RMK A01 T00290007  RH  086%=      5-min Rain = 0
KANS 012142Z 02010KT 03/01 A304 RMK A01 T00290008  RH  086%=      5-min Rain = 0
KANS 012143Z 01009KT 03/01 A304 RMK A01 T00290006  RH  085%=      5-min Rain = 0
KANS 012144Z 01009KT 03/01 A304 RMK A01 T00290008  RH  086%=      5-min Rain = 0
KANS 012145Z 02009KT 03/01 A304 RMK A01 T00290006  RH  085%=      5-min Rain = 0
KANS 012146Z 02009KT 03/01 A304 RMK A01 T00290006  RH  085%=      5-min Rain = 0
KANS 012147Z 02008KT 03/01 A304 RMK A01 T00290009  RH  087%=      5-min Rain = 0
KANS 012148Z 01010KT 03/01 A304 RMK A01 T00300012  RH  088%=      5-min Rain = 0
KANS 012149Z 02010KT 03/01 A304 RMK A01 T00310009  RH  086%=      5-min Rain = 0
KANS 012150Z 02011KT 03/01 A304 RMK A01 T00310008  RH  085%=      5-min Rain = 0
KANS 012151Z 02009KT 03/01 A304 RMK A01 T00300007  RH  085%=      5-min Rain = 0
KANS 012152Z 02009KT 03/01 A304 RMK A01 T00300006  RH  085%=      5-min Rain = 0
KANS 012153Z 01011KT 03/01 A3039 RMK A01 T00290008  RH  086%=      5-min Rain = 0
KANS 012154Z 01010KT 03/01 A3039 RMK A01 T00300008  RH  085%=      5-min Rain = 0
KANS 012155Z 01010KT 03/01 A3039 RMK A01 T00300005  RH  084%=      5-min Rain = 0
KANS 012156Z 02011KT 03/01 A3039 RMK A01 T00310007  RH  084%=      5-min Rain = 0
KANS 012157Z 02011KT 03/01 A3039 RMK A01 T00320008  RH  085%=      5-min Rain = 0
KANS 012158Z 02011KT 03/01 A3039 RMK A01 T00320005  RH  082%=      5-min Rain = 0
KANS 012159Z 01011KT 03/00 A3039 RMK A01 T003200-0  RH  079%=      5-min Rain = 0
KANS 012200Z 02011KT 03/00 A3039 RMK A01 T00320001  RH  080%=      5-min Rain = 0
KANS 012201Z 03011KT 03/00 A3039 RMK A01 T00320002  RH  081%=      5-min Rain = 0
KANS 012202Z 03011KT 03/M00 A3039 RMK A01 T00321001  RH  078%=      5-min Rain = 0
KANS 012203Z 03010KT 03/00 A3039 RMK A01 T00320001  RH  080%=      5-min Rain = 0
KANS 012204Z 03011KT 03/00 A3039 RMK A01 T00320002  RH  081%=      5-min Rain = 0
KANS 012205Z 04011KT 03/00 A3039 RMK A01 T003200-0  RH  079%=      5-min Rain = 0
KANS 012206Z 03011KT 03/M00 A3039 RMK A01 T00321002  RH  079%=      5-min Rain = 0
KANS 012207Z 03009KT 03/00 A3039 RMK A01 T003200-0  RH  080%=      5-min Rain = 0
KANS 012208Z 02009KT 03/00 A3039 RMK A01 T003100-0  RH  080%=      5-min Rain = 0
KANS 012209Z 02009KT 03/00 A3039 RMK A01 T00320001  RH  080%=      5-min Rain = 0
KANS 012210Z 02010KT 03/00 A3039 RMK A01 T003200-0  RH  079%=      5-min Rain = 0
KANS 012211Z 01010KT 03/M00 A3039 RMK A01 T00321001  RH  079%=      5-min Rain = 0
KANS 012212Z 01011KT 03/M00 A3039 RMK A01 T00321003  RH  077%=      5-min Rain = 0
KANS 012213Z 01011KT 03/M00 A3039 RMK A01 T00331004  RH  077%=      5-min Rain = 0
KANS 012214Z 01010KT 03/M01 A3039 RMK A01 T00331005  RH  076%=      5-min Rain = 0
KANS 012215Z 01009KT 03/M01 A3039 RMK A01 T00331006  RH  076%=      5-min Rain = 0
KANS 012216Z 01010KT 03/M01 A3039 RMK A01 T00331005  RH  076%=      5-min Rain = 0
KANS 012217Z 02010KT 03/M00 A3039 RMK A01 T00341001  RH  078%=      5-min Rain = 0
KANS 012218Z 02008KT 04/M00 A3039 RMK A01 T00361002  RH  076%=      5-min Rain = 0
KANS 012219Z 02007KT 04/00 A3039 RMK A01 T00360002  RH  078%=      5-min Rain = 0
KANS 012220Z 02008KT 04/00 A3039 RMK A01 T00380002  RH  078%=      5-min Rain = 0
KANS 012221Z 02007KT 04/M00 A3038 RMK A01 T00381003  RH  075%=      5-min Rain = 0
KANS 012222Z 01007G13KT 04/M00 A3038 RMK A01 T00371001  RH  077%=      5-min Rain = 0
KANS 012223Z 01011KT 04/M00 A3038 RMK A01 T00371001  RH  076%=      5-min Rain = 0
KANS 012224Z 02010KT 04/M01 A3038 RMK A01 T00371005  RH  074%=      5-min Rain = 0
KANS 012225Z 03009KT 04/M01 A3038 RMK A01 T00371005  RH  074%=      5-min Rain = 0
KANS 012226Z 03008KT 04/M01 A3038 RMK A01 T00371009  RH  072%=      5-min Rain = 0
KANS 012227Z 02006KT 04/M01 A3038 RMK A01 T00371005  RH  074%=      5-min Rain = 0
KANS 012228Z 02008KT 04/M00 A3038 RMK A01 T00391001  RH  075%=      5-min Rain = 0
KANS 012229Z 03008KT 04/M00 A3038 RMK A01 T00401004  RH  073%=      5-min Rain = 0
KANS 012230Z 02007KT 04/M00 A3038 RMK A01 T00401004  RH  073%=      5-min Rain = 0
KANS 012231Z 01010KT 04/M01 A3038 RMK A01 T00411005  RH  072%=      5-min Rain = 0
KANS 012232Z 03010KT 04/M01 A3038 RMK A01 T00411010  RH  069%=      5-min Rain = 0
KANS 012233Z 03009KT 04/M01 A3038 RMK A01 T00411010  RH  070%=      5-min Rain = 0
KANS 012234Z 04010KT 04/M01 A3038 RMK A01 T00411009  RH  070%=      5-min Rain = 0
KANS 012235Z 04009KT 04/M01 A3038 RMK A01 T00411010  RH  069%=      5-min Rain = 0
KANS 012236Z 03007KT 04/M01 A3038 RMK A01 T00411011  RH  069%=      5-min Rain = 0
KANS 012237Z 04009KT 04/M01 A3037 RMK A01 T00421008  RH  070%=      5-min Rain = 0
KANS 012238Z 03011KT 04/M01 A3037 RMK A01 T00441007  RH  069%=      5-min Rain = 0
KANS 012239Z 03010KT 05/M01 A3037 RMK A01 T00451009  RH  068%=      5-min Rain = 0
KANS 012240Z 03010KT 05/M01 A3037 RMK A01 T00461011  RH  066%=      5-min Rain = 0
KANS 012241Z 03009KT 05/M01 A3037 RMK A01 T00471010  RH  066%=      5-min Rain = 0
KANS 012242Z 03010KT 05/M01 A3037 RMK A01 T00481011  RH  066%=      5-min Rain = 0
KANS 012243Z 03010KT 05/M01 A3037 RMK A01 T00481013  RH  065%=      5-min Rain = 0
KANS 012244Z 04009KT 05/M01 A3037 RMK A01 T00481009  RH  067%=      5-min Rain = 0
KANS 012245Z 03010KT 05/M01 A3037 RMK A01 T00481005  RH  068%=      5-min Rain = 0
KANS 012246Z 02011KT 05/M01 A3037 RMK A01 T00491008  RH  067%=      5-min Rain = 0
KANS 012247Z 03010KT 05/M01 A3037 RMK A01 T00491014  RH  064%=      5-min Rain = 0
KANS 012248Z 02009KT 05/M02 A3037 RMK A01 T00471016  RH  064%=      5-min Rain = 0
KANS 012249Z 02009KT 05/M01 A3037 RMK A01 T00461014  RH  065%=      5-min Rain = 0
KANS 012250Z 01009KT 05/M01 A3037 RMK A01 T00461011  RH  067%=      5-min Rain = 0
KANS 012251Z 02010KT 05/M02 A3037 RMK A01 T00461015  RH  065%=      5-min Rain = 0
KANS 012252Z 02010KT 05/M02 A3037 RMK A01 T00461020  RH  063%=      5-min Rain = 0
KANS 012253Z 02010KT 05/M02 A3037 RMK A01 T00451020  RH  063%=      5-min Rain = 0
KANS 012254Z 02008KT 05/M02 A3037 RMK A01 T00451018  RH  063%=      5-min Rain = 0
KANS 012255Z 02009KT 05/M02 A3037 RMK A01 T00461015  RH  065%=      5-min Rain = 0
KANS 012256Z 02011KT 05/M02 A3037 RMK A01 T00461018  RH  063%=      5-min Rain = 0
KANS 012257Z 03009KT 05/M02 A3037 RMK A01 T00471023  RH  061%=      5-min Rain = 0
KANS 012258Z 02007KT 05/M03 A3037 RMK A01 T00471027  RH  059%=      5-min Rain = 0
KANS 012259Z 02008KT 05/M02 A3037 RMK A01 T00471023  RH  061%=      5-min Rain = 0
KANS 012300Z 01007KT 05/M02 A3037 RMK A01 T00471019  RH  062%=      5-min Rain = 0
KANS 012301Z 01008KT 05/M02 A3037 RMK A01 T00481018  RH  063%=      5-min Rain = 0
KANS 012302Z 02008KT 05/M02 A3037 RMK A01 T00481019  RH  062%=      5-min Rain = 0
KANS 012303Z 02006KT 05/M02 A3037 RMK A01 T00481017  RH  063%=      5-min Rain = 0
KANS 012304Z 01009KT 05/M02 A3037 RMK A01 T00491016  RH  063%=      5-min Rain = 0
KANS 012305Z 01008KT 05/M02 A3037 RMK A01 T00501019  RH  061%=      5-min Rain = 0
KANS 012306Z 01008KT 05/M02 A3037 RMK A01 T00501019  RH  061%=      5-min Rain = 0
KANS 012307Z 00008KT 05/M02 A3037 RMK A01 T00511019  RH  061%=      5-min Rain = 0
KANS 012308Z 00008KT 05/M02 A3037 RMK A01 T00511019  RH  061%=      5-min Rain = 0
KANS 012309Z 01008KT 05/M02 A3037 RMK A01 T00511020  RH  060%=      5-min Rain = 0
KANS 012310Z 02010KT 05/M02 A3037 RMK A01 T00521022  RH  059%=      5-min Rain = 0
KANS 012311Z 02011KT 05/M03 A3037 RMK A01 T00531027  RH  056%=      5-min Rain = 0
KANS 012312Z 02010KT 05/M03 A3037 RMK A01 T00531030  RH  055%=      5-min Rain = 0
KANS 012313Z 01009KT 05/M03 A3037 RMK A01 T00531028  RH  056%=      5-min Rain = 0
KANS 012314Z 01009KT 05/M03 A3037 RMK A01 T00521025  RH  058%=      5-min Rain = 0
KANS 012315Z 01009KT 05/M03 A3037 RMK A01 T00521025  RH  058%=      5-min Rain = 0
KANS 012316Z 02009KT 05/M03 A3037 RMK A01 T00521025  RH  058%=      5-min Rain = 0
KANS 012317Z 02008KT 05/M03 A3037 RMK A01 T00511026  RH  057%=      5-min Rain = 0
KANS 012318Z 02007KT 05/M03 A3037 RMK A01 T00511025  RH  058%=      5-min Rain = 0
KANS 012319Z 02008KT 05/M02 A3037 RMK A01 T00511023  RH  059%=      5-min Rain = 0
KANS 012320Z 02009KT 05/M02 A3037 RMK A01 T00511023  RH  059%=      5-min Rain = 0
KANS 012321Z 03007KT 05/M03 A3037 RMK A01 T00521025  RH  058%=      5-min Rain = 0
KANS 012322Z 02006KT 05/M03 A3037 RMK A01 T00521026  RH  057%=      5-min Rain = 0
KANS 012323Z 02007KT 05/M02 A3037 RMK A01 T00521024  RH  058%=      5-min Rain = 0
KANS 012324Z 03005KT 05/M03 A3037 RMK A01 T00521026  RH  057%=      5-min Rain = 0
KANS 012325Z 03006KT 05/M02 A3037 RMK A01 T00531024  RH  058%=      5-min Rain = 0
KANS 012326Z 03006KT 05/M02 A3037 RMK A01 T00531023  RH  058%=      5-min Rain = 0
KANS 012327Z 04006KT 05/M02 A3037 RMK A01 T00541023  RH  058%=      5-min Rain = 0
KANS 012328Z 03007KT 05/M03 A3037 RMK A01 T00541029  RH  055%=      5-min Rain = 0
KANS 012329Z 04007KT 05/M03 A3037 RMK A01 T00541031  RH  054%=      5-min Rain = 0
KANS 012330Z 05004KT 05/M03 A3037 RMK A01 T00541030  RH  055%=      5-min Rain = 0
KANS 012331Z 05005KT 05/M03 A3037 RMK A01 T00541028  RH  056%=      5-min Rain = 0
KANS 012332Z 05007KT 06/M03 A3037 RMK A01 T00551030  RH  054%=      5-min Rain = 0
KANS 012333Z 06007KT 06/M03 A3037 RMK A01 T00551032  RH  053%=      5-min Rain = 0
KANS 012334Z 06007KT 06/M03 A3037 RMK A01 T00561028  RH  055%=      5-min Rain = 0
KANS 012335Z 06006KT 06/M03 A3037 RMK A01 T00571030  RH  053%=      5-min Rain = 0
KANS 012336Z 06006KT 06/M03 A3036 RMK A01 T00571032  RH  053%=      5-min Rain = 0
KANS 012337Z 06009KT 06/M03 A3036 RMK A01 T00581031  RH  053%=      5-min Rain = 0
KANS 012338Z 06009KT 06/M03 A3036 RMK A01 T00581032  RH  052%=      5-min Rain = 0
KANS 012339Z 05008KT 06/M03 A3036 RMK A01 T00581031  RH  053%=      5-min Rain = 0
KANS 012340Z 06008KT 06/M03 A3036 RMK A01 T00591030  RH  053%=      5-min Rain = 0
KANS 012341Z 06007KT 06/M03 A3036 RMK A01 T00591030  RH  053%=      5-min Rain = 0
KANS 012342Z 04008KT 06/M03 A3036 RMK A01 T00601028  RH  053%=      5-min Rain = 0
KANS 012343Z 05006KT 06/M03 A3036 RMK A01 T00601030  RH  052%=      5-min Rain = 0
KANS 012344Z 04007KT 06/M03 A3036 RMK A01 T00601031  RH  052%=      5-min Rain = 0
KANS 012345Z 04007KT 06/M03 A3036 RMK A01 T00601029  RH  053%=      5-min Rain = 0
KANS 012346Z 04006KT 06/M03 A3036 RMK A01 T00601031  RH  052%=      5-min Rain = 0
KANS 012347Z 03007KT 06/M03 A3036 RMK A01 T00601030  RH  052%=      5-min Rain = 0
KANS 012348Z 04007KT 06/M03 A3036 RMK A01 T00601030  RH  052%=      5-min Rain = 0
KANS 012349Z 03007KT 06/M03 A3036 RMK A01 T00601030  RH  052%=      5-min Rain = 0
KANS 012350Z 03006KT 06/M03 A3036 RMK A01 T00601029  RH  053%=      5-min Rain = 0
KANS 012351Z 03006KT 06/M03 A3036 RMK A01 T00601027  RH  054%=      5-min Rain = 0
KANS 012352Z 02006KT 06/M03 A3036 RMK A01 T00611027  RH  053%=      5-min Rain = 0
KANS 012353Z 03007KT 06/M03 A3036 RMK A01 T00621027  RH  053%=      5-min Rain = 0
KANS 012354Z 03007KT 06/M03 A3036 RMK A01 T00631027  RH  053%=      5-min Rain = 0
KANS 012355Z 02008KT 06/M03 A3036 RMK A01 T00641028  RH  052%=      5-min Rain = 0
KANS 012356Z 03008KT 07/M03 A3036 RMK A01 T00651030  RH  051%=      5-min Rain = 0
KANS 012357Z 04011KT 07/M03 A3036 RMK A01 T00661033  RH  049%=      5-min Rain = 0
KANS 012358Z 04011KT 07/M04 A3036 RMK A01 T00661039  RH  047%=      5-min Rain = 0
KANS 012359Z 04012KT 07/M04 A3036 RMK A01 T00661038  RH  047%=      5-min Rain = 0
KANS 020000Z 04009KT 07/M04 A3036 RMK A01 T00661038  RH  048%=      5-min Rain = 0
KANS 020001Z 04009KT 07/M04 A3036 RMK A01 T00661035  RH  049%=      5-min Rain = 0
KANS 020002Z 02007KT 07/M03 A3036 RMK A01 T00661033  RH  049%=      5-min Rain = 0
KANS 020003Z 03009KT 07/M03 A3036 RMK A01 T00661032  RH  050%=      5-min Rain = 0
KANS 020004Z 03010KT 07/M03 A3036 RMK A01 T00661034  RH  049%=      5-min Rain = 0
KANS 020005Z 03008KT 07/M04 A3036 RMK A01 T00651035  RH  049%=      5-min Rain = 0
KANS 020006Z 03009KT 06/M04 A3036 RMK A01 T00641035  RH  049%=      5-min Rain = 0
KANS 020007Z 03009KT 06/M04 A3036 RMK A01 T00631037  RH  049%=      5-min Rain = 0
KANS 020008Z 03009KT 06/M04 A3036 RMK A01 T00631037  RH  049%=      5-min Rain = 0
KANS 020009Z 02008KT 06/M04 A3036 RMK A01 T00631039  RH  048%=      5-min Rain = 0
KANS 020010Z 03007KT 06/M04 A3036 RMK A01 T00621038  RH  049%=      5-min Rain = 0
KANS 020011Z 03007KT 06/M04 A3036 RMK A01 T00621039  RH  048%=      5-min Rain = 0
KANS 020012Z 02007KT 06/M04 A3036 RMK A01 T00621037  RH  049%=      5-min Rain = 0
KANS 020013Z 02007KT 06/M04 A3036 RMK A01 T00611038  RH  049%=      5-min Rain = 0
KANS 020014Z 02007KT 06/M04 A3036 RMK A01 T00601041  RH  048%=      5-min Rain = 0
KANS 020015Z 03006KT 06/M04 A3036 RMK A01 T00591040  RH  049%=      5-min Rain = 0
KANS 020016Z 02006KT 06/M04 A3036 RMK A01 T00581040  RH  049%=      5-min Rain = 0
KANS 020017Z 03005KT 06/M04 A3036 RMK A01 T00571039  RH  050%=      5-min Rain = 0
KANS 020018Z 02005KT 06/M04 A3036 RMK A01 T00571039  RH  050%=      5-min Rain = 0
KANS 020019Z 01005KT 06/M04 A3036 RMK A01 T00561040  RH  050%=      5-min Rain = 0
KANS 020020Z 01007KT 06/M04 A3036 RMK A01 T00551039  RH  050%=      5-min Rain = 0
KANS 020021Z 00006KT 06/M04 A3036 RMK A01 T00551040  RH  050%=      5-min Rain = 0
KANS 020022Z 01006KT 05/M04 A3037 RMK A01 T00541038  RH  051%=      5-min Rain = 0
KANS 020023Z 01006KT 05/M04 A3037 RMK A01 T00531037  RH  052%=      5-min Rain = 0
KANS 020024Z 01005KT 05/M04 A3036 RMK A01 T00531037  RH  052%=      5-min Rain = 0
KANS 020025Z 01005KT 05/M04 A3036 RMK A01 T00521037  RH  053%=      5-min Rain = 0
KANS 020026Z 02004KT 05/M04 A3036 RMK A01 T00511036  RH  053%=      5-min Rain = 0
KANS 020027Z 02005KT 05/M04 A3036 RMK A01 T00511037  RH  053%=      5-min Rain = 0
KANS 020028Z 03005KT 05/M04 A3036 RMK A01 T00501040  RH  052%=      5-min Rain = 0
KANS 020029Z 03005KT 05/M04 A3036 RMK A01 T00501040  RH  052%=      5-min Rain = 0
KANS 020030Z 03005KT 05/M04 A3037 RMK A01 T00501039  RH  053%=      5-min Rain = 0
KANS 020031Z 03005KT 05/M04 A3037 RMK A01 T00491039  RH  053%=      5-min Rain = 0
KANS 020032Z 03005KT 05/M04 A3037 RMK A01 T00491039  RH  053%=      5-min Rain = 0
KANS 020033Z 03004KT 05/M04 A3037 RMK A01 T00481040  RH  053%=      5-min Rain = 0
KANS 020034Z 03004KT 05/M04 A3037 RMK A01 T00481041  RH  053%=      5-min Rain = 0
KANS 020035Z 03004KT 05/M04 A3037 RMK A01 T00481041  RH  053%=      5-min Rain = 0
KANS 020036Z 02004KT 05/M04 A3037 RMK A01 T00471040  RH  053%=      5-min Rain = 0
KANS 020037Z 02005KT 05/M04 A3037 RMK A01 T00471041  RH  053%=      5-min Rain = 0
KANS 020038Z 02004KT 05/M04 A3037 RMK A01 T00461040  RH  053%=      5-min Rain = 0
KANS 020039Z 02004KT 05/M04 A3037 RMK A01 T00461039  RH  054%=      5-min Rain = 0
KANS 020040Z 01004KT 05/M04 A3037 RMK A01 T00451038  RH  055%=      5-min Rain = 0
KANS 020041Z 36003KT 04/M04 A3037 RMK A01 T00441039  RH  055%=      5-min Rain = 0
KANS 020042Z 35003KT 04/M04 A3037 RMK A01 T00431038  RH  055%=      5-min Rain = 0
KANS 020043Z 36003KT 04/M04 A3037 RMK A01 T00421037  RH  056%=      5-min Rain = 0
KANS 020044Z 36003KT 04/M04 A3037 RMK A01 T00421036  RH  057%=      5-min Rain = 0.01
KANS 020045Z 00003KT 04/M04 A3037 RMK A01 T00411036  RH  058%=      5-min Rain = 0
KANS 020046Z 01003KT 04/M04 A3037 RMK A01 T00401035  RH  058%=      5-min Rain = 0
KANS 020047Z 00003KT 04/M04 A3037 RMK A01 T00381035  RH  059%=      5-min Rain = 0
KANS 020048Z 00003KT 04/M04 A3037 RMK A01 T00371035  RH  059%=      5-min Rain = 0
KANS 020049Z 36004KT 04/M04 A3037 RMK A01 T00361035  RH  059%=      5-min Rain = 0
KANS 020050Z 35004KT 04/M04 A3037 RMK A01 T00361036  RH  060%=      5-min Rain = 0
KANS 020051Z 35004KT 04/M04 A3037 RMK A01 T00351035  RH  061%=      5-min Rain = 0
KANS 020052Z 35004KT 03/M04 A3037 RMK A01 T00331035  RH  061%=      5-min Rain = 0
KANS 020053Z 35004KT 03/M03 A3037 RMK A01 T00321034  RH  062%=      5-min Rain = 0
KANS 020054Z 35004KT 03/M03 A3037 RMK A01 T00321033  RH  063%=      5-min Rain = 0
KANS 020055Z 35004KT 03/M03 A3037 RMK A01 T00311032  RH  063%=      5-min Rain = 0
KANS 020056Z 35004KT 03/M03 A3037 RMK A01 T00301032  RH  064%=      5-min Rain = 0
KANS 020057Z 34005KT 03/M03 A3037 RMK A01 T00291032  RH  064%=      5-min Rain = 0
KANS 020058Z 35005KT 03/M03 A3037 RMK A01 T00291033  RH  064%=      5-min Rain = 0
KANS 020059Z 34005KT 03/M04 A3037 RMK A01 T00291035  RH  063%=      5-min Rain = 0
KANS 020100Z 34005KT 03/M04 A3037 RMK A01 T00291035  RH  063%=      5-min Rain = 0
KANS 020101Z 34006KT 03/M04 A3037 RMK A01 T00291035  RH  063%=      5-min Rain = 0
KANS 020102Z 34006KT 03/M03 A3037 RMK A01 T00291034  RH  063%=      5-min Rain = 0
KANS 020103Z 34006KT 03/M03 A3037 RMK A01 T00281033  RH  064%=      5-min Rain = 0
KANS 020104Z 34006KT 03/M03 A3037 RMK A01 T00281034  RH  064%=      5-min Rain = 0
KANS 020105Z 33006KT 03/M03 A3037 RMK A01 T00281034  RH  063%=      5-min Rain = 0
KANS 020106Z 33006KT 03/M04 A3037 RMK A01 T00281035  RH  063%=      5-min Rain = 0
KANS 020107Z 33006KT 03/M04 A3037 RMK A01 T00281035  RH  063%=      5-min Rain = 0
KANS 020108Z 33006KT 03/M04 A3037 RMK A01 T00281036  RH  062%=      5-min Rain = 0
KANS 020109Z 33006KT 03/M04 A3037 RMK A01 T00291037  RH  062%=      5-min Rain = 0
KANS 020110Z 33006KT 03/M04 A3037 RMK A01 T00291037  RH  062%=      5-min Rain = 0
KANS 020111Z 33006KT 03/M04 A3037 RMK A01 T00291036  RH  063%=      5-min Rain = 0
KANS 020112Z 33006KT 03/M04 A3037 RMK A01 T00281035  RH  063%=      5-min Rain = 0
KANS 020113Z 33006KT 03/M03 A3037 RMK A01 T00281034  RH  064%=      5-min Rain = 0
KANS 020114Z 33006KT 03/M04 A3037 RMK A01 T00281035  RH  064%=      5-min Rain = 0
KANS 020115Z 33006KT 03/M04 A3037 RMK A01 T00281035  RH  063%=      5-min Rain = 0
KANS 020116Z 33005KT 03/M04 A3037 RMK A01 T00281035  RH  063%=      5-min Rain = 0
KANS 020117Z 34005KT 03/M03 A3037 RMK A01 T00281034  RH  063%=      5-min Rain = 0
KANS 020118Z 34005KT 03/M04 A3037 RMK A01 T00281035  RH  063%=      5-min Rain = 0
KANS 020119Z 34005KT 03/M04 A3037 RMK A01 T00281035  RH  063%=      5-min Rain = 0
KANS 020120Z 34005KT 03/M04 A3037 RMK A01 T00281035  RH  064%=      5-min Rain = 0
KANS 020121Z 33005KT 03/M03 A3037 RMK A01 T00271034  RH  064%=      5-min Rain = 0
KANS 020122Z 33005KT 03/M03 A3037 RMK A01 T00261034  RH  065%=      5-min Rain = 0
KANS 020123Z 32005KT 03/M03 A3037 RMK A01 T00261033  RH  065%=      5-min Rain = 0
KANS 020124Z 32005KT 03/M03 A3037 RMK A01 T00251032  RH  066%=      5-min Rain = 0
KANS 020125Z 32005KT 02/M03 A3037 RMK A01 T00241032  RH  066%=      5-min Rain = 0
KANS 020126Z 32005KT 02/M03 A3037 RMK A01 T00241032  RH  067%=      5-min Rain = 0
KANS 020127Z 31005KT 02/M03 A3037 RMK A01 T00241032  RH  067%=      5-min Rain = 0
KANS 020128Z 31005KT 02/M03 A3037 RMK A01 T00241031  RH  067%=      5-min Rain = 0
KANS 020129Z 31005KT 02/M03 A3037 RMK A01 T00231030  RH  068%=      5-min Rain = 0
KANS 020130Z 32005KT 02/M03 A3037 RMK A01 T00231031  RH  067%=      5-min Rain = 0
KANS 020131Z 32005KT 02/M03 A3037 RMK A01 T00231032  RH  067%=      5-min Rain = 0
KANS 020132Z 32005KT 02/M03 A3037 RMK A01 T00241033  RH  066%=      5-min Rain = 0
KANS 020133Z 32004KT 02/M03 A3037 RMK A01 T00241033  RH  066%=      5-min Rain = 0
KANS 020134Z 33005KT 03/M03 A3037 RMK A01 T00251034  RH  065%=      5-min Rain = 0
KANS 020135Z 33005KT 03/M04 A3037 RMK A01 T00251035  RH  065%=      5-min Rain = 0
KANS 020136Z 33005KT 03/M04 A3037 RMK A01 T00261036  RH  064%=      5-min Rain = 0
KANS 020137Z 33004KT 03/M04 A3037 RMK A01 T00271036  RH  063%=      5-min Rain = 0
KANS 020138Z 33004KT 03/M04 A3037 RMK A01 T00271037  RH  062%=      5-min Rain = 0
KANS 020139Z 33004KT 03/M04 A3037 RMK A01 T00281038  RH  062%=      5-min Rain = 0
KANS 020140Z 33004KT 03/M04 A3037 RMK A01 T00281038  RH  062%=      5-min Rain = 0
KANS 020141Z 33003KT 03/M04 A3037 RMK A01 T00281038  RH  062%=      5-min Rain = 0
KANS 020142Z 34003KT 03/M04 A3037 RMK A01 T00281039  RH  061%=      5-min Rain = 0
KANS 020143Z 33003KT 03/M04 A3037 RMK A01 T00291039  RH  061%=      5-min Rain = 0
KANS 020144Z 33004KT 03/M04 A3037 RMK A01 T00291040  RH  061%=      5-min Rain = 0
KANS 020145Z 33003KT 03/M04 A3037 RMK A01 T00291040  RH  060%=      5-min Rain = 0
KANS 020146Z 33004KT 03/M04 A3037 RMK A01 T00301041  RH  060%=      5-min Rain = 0
KANS 020147Z 33004KT 03/M04 A3037 RMK A01 T00301041  RH  059%=      5-min Rain = 0
KANS 020148Z 33004KT 03/M04 A3037 RMK A01 T00301042  RH  059%=      5-min Rain = 0
KANS 020149Z 33004KT 03/M04 A3037 RMK A01 T00301042  RH  059%=      5-min Rain = 0
KANS 020150Z 33004KT 03/M04 A3037 RMK A01 T00311043  RH  059%=      5-min Rain = 0
KANS 020151Z 33004KT 03/M04 A3037 RMK A01 T00311043  RH  058%=      5-min Rain = 0
KANS 020152Z 33004KT 03/M04 A3037 RMK A01 T00311043  RH  059%=      5-min Rain = 0
KANS 020153Z 33004KT 03/M04 A3037 RMK A01 T00301042  RH  059%=      5-min Rain = 0
KANS 020154Z 34004KT 03/M04 A3037 RMK A01 T00301043  RH  059%=      5-min Rain = 0
KANS 020155Z 34004KT 03/M04 A3037 RMK A01 T00291043  RH  059%=      5-min Rain = 0
KANS 020156Z 34004KT 03/M04 A3037 RMK A01 T00291043  RH  059%=      5-min Rain = 0
KANS 020157Z 34004KT 03/M04 A3037 RMK A01 T00291044  RH  059%=      5-min Rain = 0
KANS 020158Z 34004KT 03/M04 A3037 RMK A01 T00291044  RH  059%=      5-min Rain = 0
KANS 020159Z 35003KT 03/M04 A3037 RMK A01 T00291044  RH  059%=      5-min Rain = 0
KANS 020200Z 35003KT 03/M04 A3037 RMK A01 T00291044  RH  058%=      5-min Rain = 0
KANS 020201Z 36003KT 03/M04 A3037 RMK A01 T00291044  RH  059%=      5-min Rain = 0
KANS 020202Z 00004KT 03/M04 A3037 RMK A01 T00291044  RH  059%=      5-min Rain = 0
KANS 020203Z 00003KT 03/M04 A3037 RMK A01 T00291044  RH  059%=      5-min Rain = 0
KANS 020204Z 01003KT 03/M04 A3037 RMK A01 T00291044  RH  059%=      5-min Rain = 0
KANS 020205Z 01003KT 03/M04 A3037 RMK A01 T00291043  RH  059%=      5-min Rain = 0
KANS 020206Z 01003KT 03/M04 A3037 RMK A01 T00291044  RH  059%=      5-min Rain = 0
KANS 020207Z 00003KT 03/M04 A3037 RMK A01 T00291044  RH  059%=      5-min Rain = 0
KANS 020208Z 00003KT 03/M04 A3037 RMK A01 T00291044  RH  059%=      5-min Rain = 0
KANS 020209Z 00003KT 03/M04 A3037 RMK A01 T00291044  RH  059%=      5-min Rain = 0
KANS 020210Z 35003KT 03/M04 A3036 RMK A01 T00291044  RH  059%=      5-min Rain = 0
KANS 020211Z 33004KT 03/M04 A3037 RMK A01 T00281044  RH  059%=      5-min Rain = 0
KANS 020212Z 33004KT 03/M04 A3037 RMK A01 T00271044  RH  060%=      5-min Rain = 0
KANS 020213Z 34004KT 03/M04 A3037 RMK A01 T00251043  RH  060%=      5-min Rain = 0
KANS 020214Z 33004KT 03/M04 A3037 RMK A01 T00251043  RH  061%=      5-min Rain = 0
KANS 020215Z 33004KT 02/M04 A3036 RMK A01 T00241042  RH  062%=      5-min Rain = 0
KANS 020216Z 33003KT 02/M04 A3036 RMK A01 T00231042  RH  062%=      5-min Rain = 0
KANS 020217Z 33003KT 02/M04 A3036 RMK A01 T00231042  RH  062%=      5-min Rain = 0
KANS 020218Z 33003KT 02/M04 A3036 RMK A01 T00221042  RH  063%=      5-min Rain = 0
KANS 020219Z 33003KT 02/M04 A3036 RMK A01 T00221041  RH  063%=      5-min Rain = 0
KANS 020220Z 33003KT 02/M04 A3036 RMK A01 T00221041  RH  063%=      5-min Rain = 0
KANS 020221Z 33003KT 02/M04 A3037 RMK A01 T00221040  RH  063%=      5-min Rain = 0
KANS 020222Z 33003KT 02/M04 A3037 RMK A01 T00221040  RH  063%=      5-min Rain = 0
KANS 020223Z 33003KT 02/M04 A3037 RMK A01 T00231041  RH  063%=      5-min Rain = 0
KANS 020224Z 32004KT 02/M04 A3037 RMK A01 T00231041  RH  062%=      5-min Rain = 0
KANS 020225Z 33004KT 02/M04 A3037 RMK A01 T00231042  RH  062%=      5-min Rain = 0
KANS 020226Z 33004KT 02/M04 A3037 RMK A01 T00231042  RH  062%=      5-min Rain = 0
KANS 020227Z 33004KT 02/M04 A3037 RMK A01 T00231044  RH  061%=      5-min Rain = 0
KANS 020228Z 33004KT 02/M04 A3037 RMK A01 T00241044  RH  061%=      5-min Rain = 0
KANS 020229Z 32004KT 03/M05 A3037 RMK A01 T00251045  RH  060%=      5-min Rain = 0
KANS 020230Z 32004KT 03/M05 A3037 RMK A01 T00251045  RH  060%=      5-min Rain = 0
KANS 020231Z 32004KT 03/M05 A3037 RMK A01 T00251045  RH  060%=      5-min Rain = 0
KANS 020232Z 31004KT 03/M04 A3037 RMK A01 T00251044  RH  060%=      5-min Rain = 0
KANS 020233Z 31004KT 02/M04 A3037 RMK A01 T00241042  RH  061%=      5-min Rain = 0
KANS 020234Z 31004KT 02/M04 A3037 RMK A01 T00241040  RH  063%=      5-min Rain = 0
KANS 020235Z 31004KT 02/M04 A3037 RMK A01 T00231038  RH  064%=      5-min Rain = 0
KANS 020236Z 31004KT 02/M04 A3037 RMK A01 T00221039  RH  064%=      5-min Rain = 0
KANS 020237Z 31004KT 02/M04 A3037 RMK A01 T00211039  RH  064%=      5-min Rain = 0
KANS 020238Z 32004KT 02/M04 A3037 RMK A01 T00211038  RH  065%=      5-min Rain = 0
KANS 020239Z 32004KT 02/M04 A3037 RMK A01 T00211038  RH  065%=      5-min Rain = 0
KANS 020240Z 32004KT 02/M04 A3037 RMK A01 T00211038  RH  065%=      5-min Rain = 0
KANS 020241Z 32004KT 02/M04 A3037 RMK A01 T00201036  RH  066%=      5-min Rain = 0
KANS 020242Z 31004KT 02/M04 A3037 RMK A01 T00181036  RH  067%=      5-min Rain = 0
KANS 020243Z 31004KT 02/M04 A3037 RMK A01 T00171036  RH  068%=      5-min Rain = 0
KANS 020244Z 31003KT 02/M04 A3037 RMK A01 T00161036  RH  069%=      5-min Rain = 0
KANS 020245Z 31004KT 02/M04 A3037 RMK A01 T00151035  RH  069%=      5-min Rain = 0
KANS 020246Z 31004KT 02/M04 A3037 RMK A01 T00151035  RH  069%=      5-min Rain = 0
KANS 020247Z 31004KT 02/M04 A3037 RMK A01 T00161036  RH  069%=      5-min Rain = 0
KANS 020248Z 31004KT 02/M04 A3037 RMK A01 T00161037  RH  068%=      5-min Rain = 0
KANS 020249Z 31004KT 02/M04 A3037 RMK A01 T00161037  RH  068%=      5-min Rain = 0
KANS 020250Z 31004KT 02/M04 A3037 RMK A01 T00161036  RH  069%=      5-min Rain = 0
KANS 020251Z 31004KT 02/M03 A3037 RMK A01 T00161034  RH  069%=      5-min Rain = 0
KANS 020252Z 31004KT 02/M03 A3037 RMK A01 T00161034  RH  069%=      5-min Rain = 0
KANS 020253Z 31004KT 02/M03 A3037 RMK A01 T00171034  RH  069%=      5-min Rain = 0
KANS 020254Z 30004KT 02/M03 A3037 RMK A01 T00181034  RH  068%=      5-min Rain = 0
KANS 020255Z 30004KT 02/M04 A3037 RMK A01 T00181035  RH  068%=      5-min Rain = 0
KANS 020256Z 30004KT 02/M04 A3037 RMK A01 T00181035  RH  068%=      5-min Rain = 0
KANS 020257Z 30004KT 02/M03 A3037 RMK A01 T00181034  RH  068%=      5-min Rain = 0
KANS 020258Z 30004KT 02/M03 A3037 RMK A01 T00171034  RH  069%=      5-min Rain = 0
KANS 020259Z 30005KT 02/M03 A3037 RMK A01 T00171034  RH  069%=      5-min Rain = 0
KANS 020300Z 30005KT 02/M03 A3037 RMK A01 T00171034  RH  069%=      5-min Rain = 0
KANS 020301Z 30004KT 02/M03 A3037 RMK A01 T00171034  RH  069%=      5-min Rain = 0
KANS 020302Z 30004KT 02/M03 A3037 RMK A01 T00181033  RH  069%=      5-min Rain = 0
KANS 020303Z 30004KT 02/M03 A3037 RMK A01 T00181032  RH  070%=      5-min Rain = 0
KANS 020304Z 30004KT 02/M03 A3037 RMK A01 T00181032  RH  070%=      5-min Rain = 0
KANS 020305Z 30004KT 02/M03 A3037 RMK A01 T00181032  RH  070%=      5-min Rain = 0
KANS 020306Z 30004KT 02/M03 A3037 RMK A01 T00181032  RH  070%=      5-min Rain = 0
KANS 020307Z 30004KT 02/M03 A3037 RMK A01 T00171032  RH  070%=      5-min Rain = 0
KANS 020308Z 30004KT 02/M03 A3037 RMK A01 T00171032  RH  070%=      5-min Rain = 0
KANS 020309Z 29005KT 02/M03 A3037 RMK A01 T00171032  RH  070%=      5-min Rain = 0
KANS 020310Z 29005KT 02/M03 A3037 RMK A01 T00171031  RH  071%=      5-min Rain = 0
KANS 020311Z 30005KT 02/M03 A3037 RMK A01 T00171030  RH  071%=      5-min Rain = 0
KANS 020312Z 30005KT 02/M03 A3037 RMK A01 T00171029  RH  071%=      5-min Rain = 0
KANS 020313Z 30005KT 02/M03 A3037 RMK A01 T00171028  RH  072%=      5-min Rain = 0
KANS 020314Z 30005KT 02/M03 A3037 RMK A01 T00171026  RH  073%=      5-min Rain = 0
KANS 020315Z 30006KT 02/M03 A3037 RMK A01 T00171025  RH  074%=      5-min Rain = 0
KANS 020316Z 30006KT 02/M02 A3037 RMK A01 T00171023  RH  075%=      5-min Rain = 0
KANS 020317Z 30005KT 02/M02 A3037 RMK A01 T00171022  RH  075%=      5-min Rain = 0
KANS 020318Z 30005KT 02/M02 A3037 RMK A01 T00171021  RH  076%=      5-min Rain = 0
KANS 020319Z 30005KT 02/M02 A3037 RMK A01 T00171021  RH  076%=      5-min Rain = 0
KANS 020320Z 31005KT 02/M02 A3037 RMK A01 T00161021  RH  076%=      5-min Rain = 0
KANS 020321Z 31005KT 02/M02 A3037 RMK A01 T00161021  RH  076%=      5-min Rain = 0
KANS 020322Z 31005KT 02/M02 A3037 RMK A01 T00151021  RH  076%=      5-min Rain = 0
KANS 020323Z 31005KT 02/M02 A3037 RMK A01 T00151021  RH  077%=      5-min Rain = 0
KANS 020324Z 31006KT 01/M02 A3037 RMK A01 T00141020  RH  078%=      5-min Rain = 0
KANS 020325Z 31005KT 01/M02 A3037 RMK A01 T00141020  RH  078%=      5-min Rain = 0
KANS 020326Z 31006KT 01/M02 A3037 RMK A01 T00141020  RH  078%=      5-min Rain = 0
KANS 020327Z 31006KT 01/M02 A3037 RMK A01 T00141020  RH  078%=      5-min Rain = 0
KANS 020328Z 30006KT 01/M02 A3037 RMK A01 T00141020  RH  078%=      5-min Rain = 0
KANS 020329Z 30006KT 01/M02 A3037 RMK A01 T00131020  RH  078%=      5-min Rain = 0
KANS 020330Z 31006KT 01/M02 A3037 RMK A01 T00131020  RH  079%=      5-min Rain = 0
KANS 020331Z 31006KT 01/M02 A3037 RMK A01 T00131020  RH  079%=      5-min Rain = 0
KANS 020332Z 31006KT 01/M02 A3037 RMK A01 T00121020  RH  079%=      5-min Rain = 0
KANS 020333Z 31006KT 01/M02 A3037 RMK A01 T00121020  RH  079%=      5-min Rain = 0
KANS 020334Z 31006KT 01/M02 A3037 RMK A01 T00121020  RH  079%=      5-min Rain = 0
KANS 020335Z 31006KT 01/M02 A3037 RMK A01 T00121021  RH  079%=      5-min Rain = 0
KANS 020336Z 30006KT 01/M02 A3037 RMK A01 T00121021  RH  079%=      5-min Rain = 0
KANS 020337Z 30006KT 01/M02 A3037 RMK A01 T00121021  RH  079%=      5-min Rain = 0
KANS 020338Z 30005KT 01/M02 A3037 RMK A01 T00121021  RH  079%=      5-min Rain = 0
KANS 020339Z 30005KT 01/M02 A3037 RMK A01 T00121021  RH  079%=      5-min Rain = 0
KANS 020340Z 30005KT 01/M02 A3037 RMK A01 T00121021  RH  079%=      5-min Rain = 0
KANS 020341Z 30005KT 01/M02 A3037 RMK A01 T00121022  RH  078%=      5-min Rain = 0
KANS 020342Z 30005KT 01/M02 A3037 RMK A01 T00121022  RH  078%=      5-min Rain = 0
KANS 020343Z 30005KT 01/M02 A3037 RMK A01 T00121023  RH  078%=      5-min Rain = 0
KANS 020344Z 30005KT 01/M02 A3037 RMK A01 T00111023  RH  078%=      5-min Rain = 0
KANS 020345Z 30005KT 01/M02 A3037 RMK A01 T00111024  RH  078%=      5-min Rain = 0
KANS 020346Z 30005KT 01/M02 A3037 RMK A01 T00101024  RH  078%=      5-min Rain = 0
KANS 020347Z 30005KT 01/M02 A3037 RMK A01 T00101023  RH  078%=      5-min Rain = 0
KANS 020348Z 30005KT 01/M02 A3037 RMK A01 T00101023  RH  079%=      5-min Rain = 0
KANS 020349Z 30005KT 01/M02 A3037 RMK A01 T00101023  RH  079%=      5-min Rain = 0
KANS 020350Z 30005KT 01/M02 A3037 RMK A01 T00101023  RH  079%=      5-min Rain = 0
KANS 020351Z 30005KT 01/M02 A3037 RMK A01 T00101023  RH  079%=      5-min Rain = 0
KANS 020352Z 30005KT 01/M02 A3037 RMK A01 T00101023  RH  079%=      5-min Rain = 0
KANS 020353Z 30005KT 01/M02 A3037 RMK A01 T00101023  RH  079%=      5-min Rain = 0
KANS 020354Z 30005KT 01/M02 A3037 RMK A01 T00101024  RH  078%=      5-min Rain = 0
KANS 020355Z 30005KT 01/M02 A3037 RMK A01 T00101024  RH  078%=      5-min Rain = 0
KANS 020356Z 30005KT 01/M03 A3037 RMK A01 T00101025  RH  078%=      5-min Rain = 0
KANS 020357Z 30006KT 01/M03 A3037 RMK A01 T00101025  RH  078%=      5-min Rain = 0
KANS 020358Z 30005KT 01/M03 A3037 RMK A01 T00101025  RH  078%=      5-min Rain = 0
KANS 020359Z 30006KT 01/M03 A3037 RMK A01 T00101025  RH  078%=      5-min Rain = 0
KANS 020400Z 30006KT 01/M03 A3037 RMK A01 T00101025  RH  077%=      5-min Rain = 0
KANS 020401Z 30005KT 01/M03 A3037 RMK A01 T00091025  RH  078%=      5-min Rain = 0
KANS 020402Z 30005KT 01/M03 A3037 RMK A01 T00091025  RH  078%=      5-min Rain = 0
KANS 020403Z 29005KT 01/M03 A3037 RMK A01 T00091025  RH  078%=      5-min Rain = 0
KANS 020404Z 29005KT 01/M03 A3038 RMK A01 T00091025  RH  078%=      5-min Rain = 0
KANS 020405Z 29005KT 01/M03 A3038 RMK A01 T00081025  RH  079%=      5-min Rain = 0
KANS 020406Z 29006KT 01/M03 A3038 RMK A01 T00081025  RH  078%=      5-min Rain = 0
KANS 020407Z 29005KT 01/M03 A3038 RMK A01 T00081025  RH  078%=      5-min Rain = 0
KANS 020408Z 29006KT 01/M03 A3038 RMK A01 T00071026  RH  079%=      5-min Rain = 0
KANS 020409Z 29006KT 01/M03 A3038 RMK A01 T00071026  RH  079%=      5-min Rain = 0
KANS 020410Z 29006KT 01/M03 A3038 RMK A01 T00061027  RH  079%=      5-min Rain = 0
KANS 020411Z 28006KT 01/M03 A3038 RMK A01 T00061027  RH  079%=      5-min Rain = 0
KANS 020412Z 28006KT 01/M03 A3038 RMK A01 T00051027  RH  079%=      5-min Rain = 0
KANS 020413Z 28006KT 01/M03 A3038 RMK A01 T00051027  RH  079%=      5-min Rain = 0
KANS 020414Z 28006KT 01/M03 A3038 RMK A01 T00051027  RH  079%=      5-min Rain = 0
KANS 020415Z 29006KT 01/M03 A3038 RMK A01 T00051027  RH  079%=      5-min Rain = 0
KANS 020416Z 28006KT 01/M03 A3038 RMK A01 T00061027  RH  079%=      5-min Rain = 0
KANS 020417Z 28007KT 01/M03 A3038 RMK A01 T00061027  RH  079%=      5-min Rain = 0
KANS 020418Z 28007KT 01/M03 A3038 RMK A01 T00071026  RH  078%=      5-min Rain = 0
KANS 020419Z 29007KT 01/M03 A3038 RMK A01 T00081026  RH  078%=      5-min Rain = 0
KANS 020420Z 29006KT 01/M03 A3038 RMK A01 T00091027  RH  077%=      5-min Rain = 0
KANS 020421Z 29006KT 01/M03 A3038 RMK A01 T00091027  RH  077%=      5-min Rain = 0
KANS 020422Z 29007KT 01/M03 A3038 RMK A01 T00091027  RH  077%=      5-min Rain = 0
KANS 020423Z 29006KT 01/M03 A3038 RMK A01 T00091027  RH  077%=      5-min Rain = 0
KANS 020424Z 29006KT 01/M03 A3038 RMK A01 T00091028  RH  077%=      5-min Rain = 0
KANS 020425Z 29006KT 01/M03 A3038 RMK A01 T00091028  RH  076%=      5-min Rain = 0
KANS 020426Z 29006KT 01/M03 A3038 RMK A01 T00091028  RH  076%=      5-min Rain = 0
KANS 020427Z 29006KT 01/M03 A3038 RMK A01 T00081029  RH  076%=      5-min Rain = 0
KANS 020428Z 29006KT 01/M03 A3038 RMK A01 T00081029  RH  076%=      5-min Rain = 0
KANS 020429Z 29006KT 01/M03 A3038 RMK A01 T00081029  RH  076%=      5-min Rain = 0
KANS 020430Z 29006KT 01/M03 A3038 RMK A01 T00071029  RH  076%=      5-min Rain = 0
KANS 020431Z 29005KT 01/M03 A3038 RMK A01 T00071029  RH  076%=      5-min Rain = 0
KANS 020432Z 29006KT 01/M03 A3038 RMK A01 T00071029  RH  077%=      5-min Rain = 0
KANS 020433Z 29006KT 01/M03 A3038 RMK A01 T00071029  RH  076%=      5-min Rain = 0
KANS 020434Z 29006KT 01/M03 A3038 RMK A01 T00071030  RH  076%=      5-min Rain = 0
KANS 020435Z 30006KT 01/M03 A3038 RMK A01 T00071030  RH  076%=      5-min Rain = 0
KANS 020436Z 29005KT 01/M03 A3038 RMK A01 T00071030  RH  076%=      5-min Rain = 0
KANS 020437Z 29005KT 01/M03 A3038 RMK A01 T00071030  RH  076%=      5-min Rain = 0
KANS 020438Z 29005KT 01/M03 A3038 RMK A01 T00071030  RH  076%=      5-min Rain = 0
KANS 020439Z 29005KT 01/M03 A3038 RMK A01 T00071030  RH  076%=      5-min Rain = 0
KANS 020440Z 29005KT 01/M03 A3038 RMK A01 T00071030  RH  076%=      5-min Rain = 0
KANS 020441Z 29004KT 01/M03 A3038 RMK A01 T00061031  RH  076%=      5-min Rain = 0
KANS 020442Z 29004KT 01/M03 A3038 RMK A01 T00051031  RH  077%=      5-min Rain = 0
KANS 020443Z 30004KT 01/M03 A3037 RMK A01 T00051031  RH  077%=      5-min Rain = 0
KANS 020444Z 30004KT 00/M03 A3037 RMK A01 T00041031  RH  077%=      5-min Rain = 0
KANS 020445Z 30004KT 00/M03 A3037 RMK A01 T00031031  RH  078%=      5-min Rain = 0
KANS 020446Z 30004KT 00/M03 A3037 RMK A01 T00021031  RH  078%=      5-min Rain = 0
KANS 020447Z 30005KT 00/M03 A3037 RMK A01 T00021032  RH  078%=      5-min Rain = 0
KANS 020448Z 30005KT 00/M03 A3037 RMK A01 T00011032  RH  078%=      5-min Rain = 0
KANS 020449Z 30004KT 00/M03 A3037 RMK A01 T00011032  RH  079%=      5-min Rain = 0
KANS 020450Z 30004KT 00/03 A3037 RMK A01 T00000-32  RH  079%=      5-min Rain = 0
KANS 020451Z 30003KT M00/M03 A3037 RMK A01 T10011032  RH  079%=      5-min Rain = 0
KANS 020452Z 30004KT M00/M03 A3037 RMK A01 T10021032  RH  080%=      5-min Rain = 0
KANS 020453Z 29004KT M00/M03 A3037 RMK A01 T10031032  RH  080%=      5-min Rain = 0
KANS 020454Z 29004KT M00/M03 A3037 RMK A01 T10031033  RH  080%=      5-min Rain = 0
KANS 020455Z 29004KT M00/M03 A3037 RMK A01 T10031032  RH  081%=      5-min Rain = 0
KANS 020456Z 28004KT M00/M03 A3037 RMK A01 T10031032  RH  081%=      5-min Rain = 0
KANS 020457Z 28004KT M00/M03 A3037 RMK A01 T10031032  RH  081%=      5-min Rain = 0
KANS 020458Z 28004KT M00/M03 A3037 RMK A01 T10031032  RH  081%=      5-min Rain = 0
KANS 020459Z 28004KT M00/M03 A3037 RMK A01 T10031032  RH  081%=      5-min Rain = 0
KANS 020500Z 28004KT M00/M03 A3037 RMK A01 T10031032  RH  081%=      5-min Rain = 0
KANS 020501Z 28004KT M00/M03 A3037 RMK A01 T10031031  RH  081%=      5-min Rain = 0
KANS 020502Z 28005KT M00/M03 A3037 RMK A01 T10031031  RH  082%=      5-min Rain = 0
KANS 020503Z 28004KT M00/M03 A3037 RMK A01 T10031031  RH  082%=      5-min Rain = 0
KANS 020504Z 27004KT M00/M03 A3037 RMK A01 T10041032  RH  081%=      5-min Rain = 0
KANS 020505Z 27004KT M01/M03 A3037 RMK A01 T10051033  RH  082%=      5-min Rain = 0
KANS 020506Z 27004KT M01/M03 A3037 RMK A01 T10051033  RH  082%=      5-min Rain = 0
KANS 020507Z 26004KT M01/M03 A3037 RMK A01 T10051033  RH  082%=      5-min Rain = 0
KANS 020508Z 26004KT M01/M03 A3037 RMK A01 T10051033  RH  081%=      5-min Rain = 0
KANS 020509Z 26005KT M01/M03 A3037 RMK A01 T10051033  RH  081%=      5-min Rain = 0
KANS 020510Z 26005KT M01/M03 A3037 RMK A01 T10061034  RH  081%=      5-min Rain = 0
KANS 020511Z 26005KT M01/M03 A3037 RMK A01 T10061034  RH  081%=      5-min Rain = 0
KANS 020512Z 27005KT M01/M04 A3037 RMK A01 T10071035  RH  081%=      5-min Rain = 0
KANS 020513Z 26005KT M01/M04 A3037 RMK A01 T10071035  RH  082%=      5-min Rain = 0
KANS 020514Z 26005KT M01/M03 A3037 RMK A01 T10071034  RH  082%=      5-min Rain = 0
KANS 020515Z 26005KT M01/M03 A3037 RMK A01 T10071034  RH  082%=      5-min Rain = 0
KANS 020516Z 26005KT M01/M03 A3037 RMK A01 T10071034  RH  082%=      5-min Rain = 0
KANS 020517Z 26005KT M01/M03 A3037 RMK A01 T10071034  RH  082%=      5-min Rain = 0
KANS 020518Z 26005KT M01/M03 A3037 RMK A01 T10081034  RH  083%=      5-min Rain = 0
KANS 020519Z 26005KT M01/M03 A3037 RMK A01 T10081033  RH  083%=      5-min Rain = 0
KANS 020520Z 26005KT M01/M03 A3037 RMK A01 T10081033  RH  083%=      5-min Rain = 0
KANS 020521Z 26005KT M01/M03 A3037 RMK A01 T10081033  RH  083%=      5-min Rain = 0
KANS 020522Z 26005KT M01/M03 A3037 RMK A01 T10091033  RH  083%=      5-min Rain = 0
KANS 020523Z 26005KT M01/M03 A3037 RMK A01 T10091033  RH  084%=      5-min Rain = 0
KANS 020524Z 26005KT M01/M03 A3037 RMK A01 T10091033  RH  084%=      5-min Rain = 0
KANS 020525Z 26005KT M01/M03 A3037 RMK A01 T10091033  RH  084%=      5-min Rain = 0
KANS 020526Z 26005KT M01/M03 A3037 RMK A01 T10091033  RH  084%=      5-min Rain = 0
KANS 020527Z 26005KT M01/M03 A3037 RMK A01 T10091033  RH  084%=      5-min Rain = 0
KANS 020528Z 26005KT M01/M03 A3037 RMK A01 T10091033  RH  084%=      5-min Rain = 0
KANS 020529Z 26006KT M01/M03 A3037 RMK A01 T10091033  RH  084%=      5-min Rain = 0
KANS 020530Z 26006KT M01/M03 A3037 RMK A01 T10091034  RH  083%=      5-min Rain = 0
KANS 020531Z 26006KT M01/M03 A3037 RMK A01 T10101034  RH  083%=      5-min Rain = 0
KANS 020532Z 26006KT M01/M03 A3037 RMK A01 T10101034  RH  084%=      5-min Rain = 0
KANS 020533Z 26007KT M01/M03 A3037 RMK A01 T10101034  RH  084%=      5-min Rain = 0
KANS 020534Z 26006KT M01/M03 A3037 RMK A01 T10101034  RH  084%=      5-min Rain = 0
KANS 020535Z 27006KT M01/M03 A3037 RMK A01 T10101034  RH  084%=      5-min Rain = 0
KANS 020536Z 27006KT M01/M03 A3036 RMK A01 T10101034  RH  084%=      5-min Rain = 0
KANS 020537Z 27005KT M01/M03 A3036 RMK A01 T10101034  RH  084%=      5-min Rain = 0
KANS 020538Z 27005KT M01/M03 A3036 RMK A01 T10101034  RH  084%=      5-min Rain = 0
KANS 020539Z 27004KT M01/M03 A3036 RMK A01 T10101034  RH  084%=      5-min Rain = 0
KANS 020540Z 26004KT M01/M03 A3036 RMK A01 T10101034  RH  084%=      5-min Rain = 0
KANS 020541Z 26004KT M01/M03 A3036 RMK A01 T10101034  RH  084%=      5-min Rain = 0
KANS 020542Z 26004KT M01/M03 A3036 RMK A01 T10111034  RH  084%=      5-min Rain = 0
KANS 020543Z 25005KT M01/M03 A3036 RMK A01 T10111034  RH  084%=      5-min Rain = 0
KANS 020544Z 25005KT M01/M03 A3036 RMK A01 T10111034  RH  084%=      5-min Rain = 0
KANS 020545Z 25005KT M01/M04 A3036 RMK A01 T10121035  RH  084%=      5-min Rain = 0
KANS 020546Z 25006KT M01/M04 A3036 RMK A01 T10121036  RH  084%=      5-min Rain = 0
KANS 020547Z 25006KT M01/M04 A3036 RMK A01 T10131036  RH  084%=      5-min Rain = 0
KANS 020548Z 25007KT M01/M04 A3036 RMK A01 T10131036  RH  085%=      5-min Rain = 0
KANS 020549Z 25007KT M01/M04 A3036 RMK A01 T10131035  RH  085%=      5-min Rain = 0
KANS 020550Z 25006KT M01/M04 A3036 RMK A01 T10131036  RH  085%=      5-min Rain = 0
KANS 020551Z 25006KT M01/M04 A3036 RMK A01 T10131036  RH  085%=      5-min Rain = 0
KANS 020552Z 24006KT M01/M04 A3036 RMK A01 T10131036  RH  084%=      5-min Rain = 0
KANS 020553Z 24007KT M01/M04 A3036 RMK A01 T10141037  RH  085%=      5-min Rain = 0
KANS 020554Z 25008KT M01/M04 A3036 RMK A01 T10141036  RH  085%=      5-min Rain = 0
KANS 020555Z 25007KT M01/M04 A3036 RMK A01 T10141036  RH  085%=      5-min Rain = 0
KANS 020556Z 25007KT M01/M04 A3036 RMK A01 T10131036  RH  085%=      5-min Rain = 0
KANS 020557Z 25007KT M01/M04 A3036 RMK A01 T10131036  RH  085%=      5-min Rain = 0
KANS 020558Z 25007KT M01/M04 A3036 RMK A01 T10131036  RH  084%=      5-min Rain = 0
KANS 020559Z 26006KT M01/M04 A3036 RMK A01 T10131036  RH  084%=      5-min Rain = 0

Page generated in 0.1223 seconds.